<?xml version="1.0" encoding="UTF-8" standalone="no" ?>
<gpx xmlns="http://www.topografix.com/GPX/1/1" creator="www.plotaroute.com" version="1.1"  xmlns:xsi="http://www.w3.org/2001/XMLSchema-instance" xsi:schemaLocation="http://www.topografix.com/GPX/1/1 http://www.topografix.com/GPX/1/1/gpx.xsd">
<metadata>
<desc>Route created on plotaroute.com</desc>
</metadata>
<trk>
<name>1990-leJog-Day8</name>
<trkseg>
<trkpt lat="54.360851" lon="-2.801734">
<ele>111</ele>
<time>2020-02-20T00:00:00Z</time></trkpt>
<trkpt lat="54.36073" lon="-2.80095">
<ele>110</ele>
<time>2020-02-20T00:00:09Z</time></trkpt>
<trkpt lat="54.359874" lon="-2.799576">
<ele>106</ele>
<time>2020-02-20T00:00:33Z</time></trkpt>
<trkpt lat="54.35882" lon="-2.796572">
<ele>110</ele>
<time>2020-02-20T00:01:14Z</time></trkpt>
<trkpt lat="54.358732" lon="-2.790528">
<ele>116</ele>
<time>2020-02-20T00:02:24Z</time></trkpt>
<trkpt lat="54.357411" lon="-2.7858">
<ele>127</ele>
<time>2020-02-20T00:03:26Z</time></trkpt>
<trkpt lat="54.358221" lon="-2.786652">
<ele>122</ele>
<time>2020-02-20T00:03:45Z</time></trkpt>
<trkpt lat="54.359126" lon="-2.787964">
<ele>117</ele>
<time>2020-02-20T00:04:08Z</time></trkpt>
<trkpt lat="54.358627" lon="-2.786986">
<ele>119</ele>
<time>2020-02-20T00:04:24Z</time></trkpt>
<trkpt lat="54.357684" lon="-2.785806">
<ele>125</ele>
<time>2020-02-20T00:04:47Z</time></trkpt>
<trkpt lat="54.356845" lon="-2.785125">
<ele>124</ele>
<time>2020-02-20T00:05:06Z</time></trkpt>
<trkpt lat="54.355275" lon="-2.784322">
<ele>127</ele>
<time>2020-02-20T00:05:38Z</time></trkpt>
<trkpt lat="54.355553" lon="-2.777918">
<ele>100</ele>
<time>2020-02-20T00:06:53Z</time></trkpt>
<trkpt lat="54.355328" lon="-2.776759">
<ele>94</ele>
<time>2020-02-20T00:07:08Z</time></trkpt>
<trkpt lat="54.355541" lon="-2.774514">
<ele>88</ele>
<time>2020-02-20T00:07:34Z</time></trkpt>
<trkpt lat="54.355503" lon="-2.772597">
<ele>91</ele>
<time>2020-02-20T00:07:57Z</time></trkpt>
<trkpt lat="54.355639" lon="-2.772263">
<ele>90</ele>
<time>2020-02-20T00:08:01Z</time></trkpt>
<trkpt lat="54.355512" lon="-2.771022">
<ele>89</ele>
<time>2020-02-20T00:08:16Z</time></trkpt>
<trkpt lat="54.354999" lon="-2.76989">
<ele>86</ele>
<time>2020-02-20T00:08:33Z</time></trkpt>
<trkpt lat="54.354823" lon="-2.768724">
<ele>74</ele>
<time>2020-02-20T00:08:47Z</time></trkpt>
<trkpt lat="54.354817" lon="-2.76739">
<ele>64</ele>
<time>2020-02-20T00:09:03Z</time></trkpt>
<trkpt lat="54.355105" lon="-2.766397">
<ele>63</ele>
<time>2020-02-20T00:09:15Z</time></trkpt>
<trkpt lat="54.355435" lon="-2.765703">
<ele>62</ele>
<time>2020-02-20T00:09:26Z</time></trkpt>
<trkpt lat="54.354731" lon="-2.764089">
<ele>61</ele>
<time>2020-02-20T00:09:49Z</time></trkpt>
<trkpt lat="54.355415" lon="-2.762595">
<ele>61</ele>
<time>2020-02-20T00:10:12Z</time></trkpt>
<trkpt lat="54.354986" lon="-2.761791">
<ele>60</ele>
<time>2020-02-20T00:10:24Z</time></trkpt>
<trkpt lat="54.354863" lon="-2.760852">
<ele>58</ele>
<time>2020-02-20T00:10:36Z</time></trkpt>
<trkpt lat="54.355922" lon="-2.758763">
<ele>62</ele>
<time>2020-02-20T00:11:08Z</time></trkpt>
<trkpt lat="54.356356" lon="-2.757895">
<ele>63</ele>
<time>2020-02-20T00:11:21Z</time></trkpt>
<trkpt lat="54.357029" lon="-2.757103">
<ele>64</ele>
<time>2020-02-20T00:11:38Z</time></trkpt>
<trkpt lat="54.358082" lon="-2.756181">
<ele>63</ele>
<time>2020-02-20T00:12:01Z</time></trkpt>
<trkpt lat="54.35809" lon="-2.75589">
<ele>64</ele>
<time>2020-02-20T00:12:05Z</time></trkpt>
<trkpt lat="54.357193" lon="-2.748024">
<ele>61</ele>
<time>2020-02-20T00:13:38Z</time></trkpt>
<trkpt lat="54.357473" lon="-2.741986">
<ele>70</ele>
<time>2020-02-20T00:14:49Z</time></trkpt>
<trkpt lat="54.357056" lon="-2.740539">
<ele>70</ele>
<time>2020-02-20T00:15:08Z</time></trkpt>
<trkpt lat="54.356214" lon="-2.739265">
<ele>69</ele>
<time>2020-02-20T00:15:30Z</time></trkpt>
<trkpt lat="54.354802" lon="-2.73877">
<ele>64</ele>
<time>2020-02-20T00:15:59Z</time></trkpt>
<trkpt lat="54.354822" lon="-2.736225">
<ele>62</ele>
<time>2020-02-20T00:16:29Z</time></trkpt>
<trkpt lat="54.355056" lon="-2.734433">
<ele>65</ele>
<time>2020-02-20T00:16:50Z</time></trkpt>
<trkpt lat="54.355051" lon="-2.733981">
<ele>67</ele>
<time>2020-02-20T00:16:56Z</time></trkpt>
<trkpt lat="54.354965" lon="-2.731892">
<ele>69</ele>
<time>2020-02-20T00:17:20Z</time></trkpt>
<trkpt lat="54.355214" lon="-2.730527">
<ele>71</ele>
<time>2020-02-20T00:17:37Z</time></trkpt>
<trkpt lat="54.356075" lon="-2.728322">
<ele>84</ele>
<time>2020-02-20T00:18:08Z</time></trkpt>
<trkpt lat="54.356197" lon="-2.72753">
<ele>85</ele>
<time>2020-02-20T00:18:17Z</time></trkpt>
<trkpt lat="54.35666" lon="-2.727587">
<ele>87</ele>
<time>2020-02-20T00:18:27Z</time></trkpt>
<trkpt lat="54.357961" lon="-2.727331">
<ele>90</ele>
<time>2020-02-20T00:18:53Z</time></trkpt>
<trkpt lat="54.360335" lon="-2.726206">
<ele>90</ele>
<time>2020-02-20T00:19:42Z</time></trkpt>
<trkpt lat="54.364362" lon="-2.725613">
<ele>112</ele>
<time>2020-02-20T00:21:03Z</time></trkpt>
<trkpt lat="54.365087" lon="-2.725077">
<ele>116</ele>
<time>2020-02-20T00:21:19Z</time></trkpt>
<trkpt lat="54.366372" lon="-2.723489">
<ele>121</ele>
<time>2020-02-20T00:21:51Z</time></trkpt>
<trkpt lat="54.367618" lon="-2.722834">
<ele>125</ele>
<time>2020-02-20T00:22:17Z</time></trkpt>
<trkpt lat="54.368291" lon="-2.722878">
<ele>129</ele>
<time>2020-02-20T00:22:30Z</time></trkpt>
<trkpt lat="54.368302" lon="-2.72271">
<ele>130</ele>
<time>2020-02-20T00:22:32Z</time></trkpt>
<trkpt lat="54.368291" lon="-2.722878">
<ele>129</ele>
<time>2020-02-20T00:22:34Z</time></trkpt>
<trkpt lat="54.369956" lon="-2.724701">
<ele>147</ele>
<time>2020-02-20T00:23:14Z</time></trkpt>
<trkpt lat="54.370243" lon="-2.725173">
<ele>149</ele>
<time>2020-02-20T00:23:22Z</time></trkpt>
<trkpt lat="54.370485" lon="-2.726166">
<ele>147</ele>
<time>2020-02-20T00:23:35Z</time></trkpt>
<trkpt lat="54.370881" lon="-2.726793">
<ele>151</ele>
<time>2020-02-20T00:23:45Z</time></trkpt>
<trkpt lat="54.372631" lon="-2.728789">
<ele>155</ele>
<time>2020-02-20T00:24:27Z</time></trkpt>
<trkpt lat="54.373156" lon="-2.730022">
<ele>153</ele>
<time>2020-02-20T00:24:45Z</time></trkpt>
<trkpt lat="54.373606" lon="-2.731675">
<ele>150</ele>
<time>2020-02-20T00:25:07Z</time></trkpt>
<trkpt lat="54.374964" lon="-2.733619">
<ele>156</ele>
<time>2020-02-20T00:25:42Z</time></trkpt>
<trkpt lat="54.376693" lon="-2.734765">
<ele>161</ele>
<time>2020-02-20T00:26:19Z</time></trkpt>
<trkpt lat="54.377762" lon="-2.734829">
<ele>162</ele>
<time>2020-02-20T00:26:41Z</time></trkpt>
<trkpt lat="54.379192" lon="-2.734046">
<ele>162</ele>
<time>2020-02-20T00:27:11Z</time></trkpt>
<trkpt lat="54.381372" lon="-2.731962">
<ele>160</ele>
<time>2020-02-20T00:28:01Z</time></trkpt>
<trkpt lat="54.382782" lon="-2.731637">
<ele>162</ele>
<time>2020-02-20T00:28:29Z</time></trkpt>
<trkpt lat="54.383825" lon="-2.730872">
<ele>164</ele>
<time>2020-02-20T00:28:52Z</time></trkpt>
<trkpt lat="54.384816" lon="-2.729271">
<ele>169</ele>
<time>2020-02-20T00:29:19Z</time></trkpt>
<trkpt lat="54.385531" lon="-2.729255">
<ele>172</ele>
<time>2020-02-20T00:29:33Z</time></trkpt>
<trkpt lat="54.386503" lon="-2.729573">
<ele>176</ele>
<time>2020-02-20T00:29:53Z</time></trkpt>
<trkpt lat="54.387103" lon="-2.729314">
<ele>180</ele>
<time>2020-02-20T00:30:06Z</time></trkpt>
<trkpt lat="54.388315" lon="-2.728156">
<ele>187</ele>
<time>2020-02-20T00:30:33Z</time></trkpt>
<trkpt lat="54.390442" lon="-2.725273">
<ele>190</ele>
<time>2020-02-20T00:31:28Z</time></trkpt>
<trkpt lat="54.391755" lon="-2.723387">
<ele>196</ele>
<time>2020-02-20T00:32:02Z</time></trkpt>
<trkpt lat="54.392094" lon="-2.722652">
<ele>201</ele>
<time>2020-02-20T00:32:13Z</time></trkpt>
<trkpt lat="54.392705" lon="-2.72001">
<ele>210</ele>
<time>2020-02-20T00:32:46Z</time></trkpt>
<trkpt lat="54.395773" lon="-2.715109">
<ele>217</ele>
<time>2020-02-20T00:34:10Z</time></trkpt>
<trkpt lat="54.396848" lon="-2.711977">
<ele>220</ele>
<time>2020-02-20T00:34:53Z</time></trkpt>
<trkpt lat="54.397591" lon="-2.710356">
<ele>225</ele>
<time>2020-02-20T00:35:17Z</time></trkpt>
<trkpt lat="54.399737" lon="-2.708143">
<ele>224</ele>
<time>2020-02-20T00:36:07Z</time></trkpt>
<trkpt lat="54.400353" lon="-2.707917">
<ele>223</ele>
<time>2020-02-20T00:36:19Z</time></trkpt>
<trkpt lat="54.401619" lon="-2.707985">
<ele>218</ele>
<time>2020-02-20T00:36:45Z</time></trkpt>
<trkpt lat="54.402256" lon="-2.707771">
<ele>216</ele>
<time>2020-02-20T00:36:58Z</time></trkpt>
<trkpt lat="54.402856" lon="-2.707342">
<ele>210</ele>
<time>2020-02-20T00:37:11Z</time></trkpt>
<trkpt lat="54.40312" lon="-2.70687">
<ele>205</ele>
<time>2020-02-20T00:37:18Z</time></trkpt>
<trkpt lat="54.404642" lon="-2.703029">
<ele>201</ele>
<time>2020-02-20T00:38:13Z</time></trkpt>
<trkpt lat="54.404905" lon="-2.701786">
<ele>211</ele>
<time>2020-02-20T00:38:28Z</time></trkpt>
<trkpt lat="54.404566" lon="-2.697954">
<ele>213</ele>
<time>2020-02-20T00:39:13Z</time></trkpt>
<trkpt lat="54.404727" lon="-2.697132">
<ele>214</ele>
<time>2020-02-20T00:39:23Z</time></trkpt>
<trkpt lat="54.404983" lon="-2.696496">
<ele>216</ele>
<time>2020-02-20T00:39:32Z</time></trkpt>
<trkpt lat="54.406379" lon="-2.69471">
<ele>231</ele>
<time>2020-02-20T00:40:07Z</time></trkpt>
<trkpt lat="54.407624" lon="-2.694758">
<ele>234</ele>
<time>2020-02-20T00:40:32Z</time></trkpt>
<trkpt lat="54.408524" lon="-2.695096">
<ele>227</ele>
<time>2020-02-20T00:40:51Z</time></trkpt>
<trkpt lat="54.409258" lon="-2.696207">
<ele>226</ele>
<time>2020-02-20T00:41:10Z</time></trkpt>
<trkpt lat="54.409879" lon="-2.698264">
<ele>239</ele>
<time>2020-02-20T00:41:37Z</time></trkpt>
<trkpt lat="54.410738" lon="-2.698935">
<ele>241</ele>
<time>2020-02-20T00:41:56Z</time></trkpt>
<trkpt lat="54.411789" lon="-2.698829">
<ele>240</ele>
<time>2020-02-20T00:42:17Z</time></trkpt>
<trkpt lat="54.413647" lon="-2.699008">
<ele>239</ele>
<time>2020-02-20T00:42:55Z</time></trkpt>
<trkpt lat="54.415345" lon="-2.699653">
<ele>245</ele>
<time>2020-02-20T00:43:29Z</time></trkpt>
<trkpt lat="54.41573" lon="-2.699657">
<ele>245</ele>
<time>2020-02-20T00:43:37Z</time></trkpt>
<trkpt lat="54.41649" lon="-2.69935">
<ele>249</ele>
<time>2020-02-20T00:43:53Z</time></trkpt>
<trkpt lat="54.417536" lon="-2.698006">
<ele>257</ele>
<time>2020-02-20T00:44:19Z</time></trkpt>
<trkpt lat="54.418395" lon="-2.697293">
<ele>262</ele>
<time>2020-02-20T00:44:38Z</time></trkpt>
<trkpt lat="54.421268" lon="-2.696207">
<ele>275</ele>
<time>2020-02-20T00:45:37Z</time></trkpt>
<trkpt lat="54.422619" lon="-2.696101">
<ele>286</ele>
<time>2020-02-20T00:46:04Z</time></trkpt>
<trkpt lat="54.423487" lon="-2.6957">
<ele>291</ele>
<time>2020-02-20T00:46:22Z</time></trkpt>
<trkpt lat="54.424111" lon="-2.694692">
<ele>295</ele>
<time>2020-02-20T00:46:39Z</time></trkpt>
<trkpt lat="54.425036" lon="-2.690916">
<ele>307</ele>
<time>2020-02-20T00:47:27Z</time></trkpt>
<trkpt lat="54.425375" lon="-2.690408">
<ele>304</ele>
<time>2020-02-20T00:47:36Z</time></trkpt>
<trkpt lat="54.425754" lon="-2.690433">
<ele>300</ele>
<time>2020-02-20T00:47:44Z</time></trkpt>
<trkpt lat="54.427544" lon="-2.691629">
<ele>291</ele>
<time>2020-02-20T00:48:22Z</time></trkpt>
<trkpt lat="54.42973" lon="-2.690918">
<ele>278</ele>
<time>2020-02-20T00:49:07Z</time></trkpt>
<trkpt lat="54.43126" lon="-2.691143">
<ele>295</ele>
<time>2020-02-20T00:49:37Z</time></trkpt>
<trkpt lat="54.432736" lon="-2.690938">
<ele>309</ele>
<time>2020-02-20T00:50:07Z</time></trkpt>
<trkpt lat="54.433589" lon="-2.690648">
<ele>315</ele>
<time>2020-02-20T00:50:25Z</time></trkpt>
<trkpt lat="54.435094" lon="-2.6893">
<ele>334</ele>
<time>2020-02-20T00:50:59Z</time></trkpt>
<trkpt lat="54.43622" lon="-2.688637">
<ele>344</ele>
<time>2020-02-20T00:51:22Z</time></trkpt>
<trkpt lat="54.437893" lon="-2.687335">
<ele>361</ele>
<time>2020-02-20T00:51:59Z</time></trkpt>
<trkpt lat="54.438637" lon="-2.687038">
<ele>366</ele>
<time>2020-02-20T00:52:15Z</time></trkpt>
<trkpt lat="54.439807" lon="-2.687099">
<ele>373</ele>
<time>2020-02-20T00:52:38Z</time></trkpt>
<trkpt lat="54.443156" lon="-2.687867">
<ele>388</ele>
<time>2020-02-20T00:53:46Z</time></trkpt>
<trkpt lat="54.446317" lon="-2.689473">
<ele>413</ele>
<time>2020-02-20T00:54:52Z</time></trkpt>
<trkpt lat="54.447744" lon="-2.689725">
<ele>419</ele>
<time>2020-02-20T00:55:20Z</time></trkpt>
<trkpt lat="54.450449" lon="-2.689757">
<ele>424</ele>
<time>2020-02-20T00:56:15Z</time></trkpt>
<trkpt lat="54.456477" lon="-2.691456">
<ele>409</ele>
<time>2020-02-20T00:58:17Z</time></trkpt>
<trkpt lat="54.460697" lon="-2.690406">
<ele>379</ele>
<time>2020-02-20T00:59:43Z</time></trkpt>
<trkpt lat="54.461161" lon="-2.690111">
<ele>374</ele>
<time>2020-02-20T00:59:52Z</time></trkpt>
<trkpt lat="54.461626" lon="-2.689537">
<ele>373</ele>
<time>2020-02-20T01:00:04Z</time></trkpt>
<trkpt lat="54.463185" lon="-2.686522">
<ele>364</ele>
<time>2020-02-20T01:00:51Z</time></trkpt>
<trkpt lat="54.463637" lon="-2.685149">
<ele>364</ele>
<time>2020-02-20T01:01:09Z</time></trkpt>
<trkpt lat="54.463983" lon="-2.681984">
<ele>356</ele>
<time>2020-02-20T01:01:47Z</time></trkpt>
<trkpt lat="54.464227" lon="-2.681458">
<ele>356</ele>
<time>2020-02-20T01:01:55Z</time></trkpt>
<trkpt lat="54.464573" lon="-2.680992">
<ele>357</ele>
<time>2020-02-20T01:02:03Z</time></trkpt>
<trkpt lat="54.466702" lon="-2.679243">
<ele>344</ele>
<time>2020-02-20T01:02:51Z</time></trkpt>
<trkpt lat="54.467596" lon="-2.677848">
<ele>345</ele>
<time>2020-02-20T01:03:15Z</time></trkpt>
<trkpt lat="54.469393" lon="-2.674238">
<ele>345</ele>
<time>2020-02-20T01:04:10Z</time></trkpt>
<trkpt lat="54.470484" lon="-2.672811">
<ele>343</ele>
<time>2020-02-20T01:04:38Z</time></trkpt>
<trkpt lat="54.473984" lon="-2.670724">
<ele>339</ele>
<time>2020-02-20T01:05:52Z</time></trkpt>
<trkpt lat="54.474439" lon="-2.670611">
<ele>338</ele>
<time>2020-02-20T01:06:01Z</time></trkpt>
<trkpt lat="54.47535" lon="-2.670762">
<ele>338</ele>
<time>2020-02-20T01:06:19Z</time></trkpt>
<trkpt lat="54.477893" lon="-2.672661">
<ele>332</ele>
<time>2020-02-20T01:07:15Z</time></trkpt>
<trkpt lat="54.478569" lon="-2.67295">
<ele>329</ele>
<time>2020-02-20T01:07:29Z</time></trkpt>
<trkpt lat="54.479617" lon="-2.673219">
<ele>325</ele>
<time>2020-02-20T01:07:50Z</time></trkpt>
<trkpt lat="54.481291" lon="-2.673212">
<ele>321</ele>
<time>2020-02-20T01:08:24Z</time></trkpt>
<trkpt lat="54.486641" lon="-2.672969">
<ele>310</ele>
<time>2020-02-20T01:10:11Z</time></trkpt>
<trkpt lat="54.491247" lon="-2.670499">
<ele>307</ele>
<time>2020-02-20T01:11:48Z</time></trkpt>
<trkpt lat="54.493216" lon="-2.670381">
<ele>298</ele>
<time>2020-02-20T01:12:27Z</time></trkpt>
<trkpt lat="54.495509" lon="-2.669801">
<ele>285</ele>
<time>2020-02-20T01:13:14Z</time></trkpt>
<trkpt lat="54.501889" lon="-2.671196">
<ele>273</ele>
<time>2020-02-20T01:15:22Z</time></trkpt>
<trkpt lat="54.502668" lon="-2.670874">
<ele>276</ele>
<time>2020-02-20T01:15:38Z</time></trkpt>
<trkpt lat="54.503822" lon="-2.669914">
<ele>279</ele>
<time>2020-02-20T01:16:04Z</time></trkpt>
<trkpt lat="54.505047" lon="-2.669523">
<ele>280</ele>
<time>2020-02-20T01:16:29Z</time></trkpt>
<trkpt lat="54.517774" lon="-2.669756">
<ele>255</ele>
<time>2020-02-20T01:20:44Z</time></trkpt>
<trkpt lat="54.51878" lon="-2.669979">
<ele>253</ele>
<time>2020-02-20T01:21:04Z</time></trkpt>
<trkpt lat="54.521273" lon="-2.671005">
<ele>253</ele>
<time>2020-02-20T01:21:56Z</time></trkpt>
<trkpt lat="54.523517" lon="-2.673019">
<ele>257</ele>
<time>2020-02-20T01:22:47Z</time></trkpt>
<trkpt lat="54.531485" lon="-2.677836">
<ele>256</ele>
<time>2020-02-20T01:25:36Z</time></trkpt>
<trkpt lat="54.533291" lon="-2.678329">
<ele>255</ele>
<time>2020-02-20T01:26:12Z</time></trkpt>
<trkpt lat="54.534375" lon="-2.67873">
<ele>257</ele>
<time>2020-02-20T01:26:35Z</time></trkpt>
<trkpt lat="54.537635" lon="-2.67926">
<ele>262</ele>
<time>2020-02-20T01:27:40Z</time></trkpt>
<trkpt lat="54.540021" lon="-2.680371">
<ele>273</ele>
<time>2020-02-20T01:28:30Z</time></trkpt>
<trkpt lat="54.543239" lon="-2.681218">
<ele>278</ele>
<time>2020-02-20T01:29:35Z</time></trkpt>
<trkpt lat="54.547054" lon="-2.682699">
<ele>275</ele>
<time>2020-02-20T01:30:53Z</time></trkpt>
<trkpt lat="54.548939" lon="-2.684222">
<ele>276</ele>
<time>2020-02-20T01:31:35Z</time></trkpt>
<trkpt lat="54.55231" lon="-2.685791">
<ele>261</ele>
<time>2020-02-20T01:32:45Z</time></trkpt>
<trkpt lat="54.554538" lon="-2.687113">
<ele>254</ele>
<time>2020-02-20T01:33:32Z</time></trkpt>
<trkpt lat="54.555786" lon="-2.687604">
<ele>250</ele>
<time>2020-02-20T01:33:58Z</time></trkpt>
<trkpt lat="54.556755" lon="-2.687743">
<ele>248</ele>
<time>2020-02-20T01:34:17Z</time></trkpt>
<trkpt lat="54.564627" lon="-2.687539">
<ele>243</ele>
<time>2020-02-20T01:36:55Z</time></trkpt>
<trkpt lat="54.565381" lon="-2.687329">
<ele>241</ele>
<time>2020-02-20T01:37:10Z</time></trkpt>
<trkpt lat="54.566966" lon="-2.686433">
<ele>236</ele>
<time>2020-02-20T01:37:44Z</time></trkpt>
<trkpt lat="54.567803" lon="-2.686301">
<ele>232</ele>
<time>2020-02-20T01:38:01Z</time></trkpt>
<trkpt lat="54.568497" lon="-2.686409">
<ele>230</ele>
<time>2020-02-20T01:38:15Z</time></trkpt>
<trkpt lat="54.571167" lon="-2.688736">
<ele>235</ele>
<time>2020-02-20T01:39:15Z</time></trkpt>
<trkpt lat="54.573687" lon="-2.690608">
<ele>243</ele>
<time>2020-02-20T01:40:10Z</time></trkpt>
<trkpt lat="54.577377" lon="-2.694425">
<ele>243</ele>
<time>2020-02-20T01:41:36Z</time></trkpt>
<trkpt lat="54.579307" lon="-2.695948">
<ele>238</ele>
<time>2020-02-20T01:42:18Z</time></trkpt>
<trkpt lat="54.582096" lon="-2.697248">
<ele>230</ele>
<time>2020-02-20T01:43:16Z</time></trkpt>
<trkpt lat="54.582895" lon="-2.697347">
<ele>231</ele>
<time>2020-02-20T01:43:32Z</time></trkpt>
<trkpt lat="54.583765" lon="-2.697186">
<ele>231</ele>
<time>2020-02-20T01:43:50Z</time></trkpt>
<trkpt lat="54.584591" lon="-2.697317">
<ele>234</ele>
<time>2020-02-20T01:44:06Z</time></trkpt>
<trkpt lat="54.592342" lon="-2.699797">
<ele>225</ele>
<time>2020-02-20T01:46:44Z</time></trkpt>
<trkpt lat="54.594666" lon="-2.701032">
<ele>225</ele>
<time>2020-02-20T01:47:33Z</time></trkpt>
<trkpt lat="54.596253" lon="-2.701159">
<ele>225</ele>
<time>2020-02-20T01:48:05Z</time></trkpt>
<trkpt lat="54.596484" lon="-2.701335">
<ele>227</ele>
<time>2020-02-20T01:48:10Z</time></trkpt>
<trkpt lat="54.597011" lon="-2.702153">
<ele>228</ele>
<time>2020-02-20T01:48:24Z</time></trkpt>
<trkpt lat="54.597619" lon="-2.703872">
<ele>229</ele>
<time>2020-02-20T01:48:47Z</time></trkpt>
<trkpt lat="54.598975" lon="-2.70527">
<ele>227</ele>
<time>2020-02-20T01:49:19Z</time></trkpt>
<trkpt lat="54.600087" lon="-2.707355">
<ele>231</ele>
<time>2020-02-20T01:49:52Z</time></trkpt>
<trkpt lat="54.601963" lon="-2.709296">
<ele>227</ele>
<time>2020-02-20T01:50:36Z</time></trkpt>
<trkpt lat="54.603098" lon="-2.712008">
<ele>229</ele>
<time>2020-02-20T01:51:15Z</time></trkpt>
<trkpt lat="54.6039" lon="-2.713495">
<ele>228</ele>
<time>2020-02-20T01:51:38Z</time></trkpt>
<trkpt lat="54.604739" lon="-2.714577">
<ele>224</ele>
<time>2020-02-20T01:51:59Z</time></trkpt>
<trkpt lat="54.608393" lon="-2.717091">
<ele>213</ele>
<time>2020-02-20T01:53:18Z</time></trkpt>
<trkpt lat="54.609175" lon="-2.717309">
<ele>215</ele>
<time>2020-02-20T01:53:34Z</time></trkpt>
<trkpt lat="54.611702" lon="-2.716959">
<ele>207</ele>
<time>2020-02-20T01:54:25Z</time></trkpt>
<trkpt lat="54.612346" lon="-2.716762">
<ele>203</ele>
<time>2020-02-20T01:54:38Z</time></trkpt>
<trkpt lat="54.614099" lon="-2.715625">
<ele>193</ele>
<time>2020-02-20T01:55:15Z</time></trkpt>
<trkpt lat="54.614686" lon="-2.715418">
<ele>190</ele>
<time>2020-02-20T01:55:27Z</time></trkpt>
<trkpt lat="54.615425" lon="-2.715435">
<ele>188</ele>
<time>2020-02-20T01:55:42Z</time></trkpt>
<trkpt lat="54.617181" lon="-2.715924">
<ele>187</ele>
<time>2020-02-20T01:56:18Z</time></trkpt>
<trkpt lat="54.617707" lon="-2.715933">
<ele>186</ele>
<time>2020-02-20T01:56:28Z</time></trkpt>
<trkpt lat="54.620222" lon="-2.71546">
<ele>177</ele>
<time>2020-02-20T01:57:19Z</time></trkpt>
<trkpt lat="54.621321" lon="-2.715567">
<ele>179</ele>
<time>2020-02-20T01:57:41Z</time></trkpt>
<trkpt lat="54.6241" lon="-2.716451">
<ele>182</ele>
<time>2020-02-20T01:58:38Z</time></trkpt>
<trkpt lat="54.627195" lon="-2.718142">
<ele>164</ele>
<time>2020-02-20T01:59:43Z</time></trkpt>
<trkpt lat="54.629485" lon="-2.7196">
<ele>158</ele>
<time>2020-02-20T02:00:32Z</time></trkpt>
<trkpt lat="54.631842" lon="-2.722028">
<ele>165</ele>
<time>2020-02-20T02:01:27Z</time></trkpt>
<trkpt lat="54.63329" lon="-2.724217">
<ele>166</ele>
<time>2020-02-20T02:02:05Z</time></trkpt>
<trkpt lat="54.635047" lon="-2.726012">
<ele>159</ele>
<time>2020-02-20T02:02:46Z</time></trkpt>
<trkpt lat="54.635745" lon="-2.72644">
<ele>158</ele>
<time>2020-02-20T02:03:01Z</time></trkpt>
<trkpt lat="54.636336" lon="-2.727059">
<ele>156</ele>
<time>2020-02-20T02:03:15Z</time></trkpt>
<trkpt lat="54.637098" lon="-2.726835">
<ele>153</ele>
<time>2020-02-20T02:03:30Z</time></trkpt>
<trkpt lat="54.638036" lon="-2.727377">
<ele>146</ele>
<time>2020-02-20T02:03:50Z</time></trkpt>
<trkpt lat="54.641897" lon="-2.730603">
<ele>132</ele>
<time>2020-02-20T02:05:16Z</time></trkpt>
<trkpt lat="54.645078" lon="-2.735561">
<ele>122</ele>
<time>2020-02-20T02:06:42Z</time></trkpt>
<trkpt lat="54.646173" lon="-2.736607">
<ele>121</ele>
<time>2020-02-20T02:07:07Z</time></trkpt>
<trkpt lat="54.6469" lon="-2.739103">
<ele>124</ele>
<time>2020-02-20T02:07:39Z</time></trkpt>
<trkpt lat="54.647338" lon="-2.739344">
<ele>123</ele>
<time>2020-02-20T02:07:49Z</time></trkpt>
<trkpt lat="54.648067" lon="-2.739395">
<ele>122</ele>
<time>2020-02-20T02:08:03Z</time></trkpt>
<trkpt lat="54.648635" lon="-2.739743">
<ele>123</ele>
<time>2020-02-20T02:08:15Z</time></trkpt>
<trkpt lat="54.651234" lon="-2.741852">
<ele>120</ele>
<time>2020-02-20T02:09:13Z</time></trkpt>
<trkpt lat="54.651813" lon="-2.742141">
<ele>121</ele>
<time>2020-02-20T02:09:25Z</time></trkpt>
<trkpt lat="54.652433" lon="-2.742432">
<ele>125</ele>
<time>2020-02-20T02:09:38Z</time></trkpt>
<trkpt lat="54.653801" lon="-2.74243">
<ele>134</ele>
<time>2020-02-20T02:10:05Z</time></trkpt>
<trkpt lat="54.654175" lon="-2.743105">
<ele>136</ele>
<time>2020-02-20T02:10:16Z</time></trkpt>
<trkpt lat="54.654396" lon="-2.743542">
<ele>136</ele>
<time>2020-02-20T02:10:23Z</time></trkpt>
<trkpt lat="54.655533" lon="-2.74386">
<ele>136</ele>
<time>2020-02-20T02:10:46Z</time></trkpt>
<trkpt lat="54.656913" lon="-2.744842">
<ele>134</ele>
<time>2020-02-20T02:11:16Z</time></trkpt>
<trkpt lat="54.661588" lon="-2.748953">
<ele>128</ele>
<time>2020-02-20T02:13:01Z</time></trkpt>
<trkpt lat="54.663465" lon="-2.751274">
<ele>132</ele>
<time>2020-02-20T02:13:47Z</time></trkpt>
<trkpt lat="54.663825" lon="-2.751973">
<ele>134</ele>
<time>2020-02-20T02:13:58Z</time></trkpt>
<trkpt lat="54.663871" lon="-2.752306">
<ele>134</ele>
<time>2020-02-20T02:14:02Z</time></trkpt>
<trkpt lat="54.663663" lon="-2.753019">
<ele>134</ele>
<time>2020-02-20T02:14:11Z</time></trkpt>
<trkpt lat="54.664249" lon="-2.754084">
<ele>137</ele>
<time>2020-02-20T02:14:28Z</time></trkpt>
<trkpt lat="54.664405" lon="-2.754015">
<ele>136</ele>
<time>2020-02-20T02:14:31Z</time></trkpt>
<trkpt lat="54.664776" lon="-2.754954">
<ele>139</ele>
<time>2020-02-20T02:14:45Z</time></trkpt>
<trkpt lat="54.66511" lon="-2.754454">
<ele>136</ele>
<time>2020-02-20T02:14:53Z</time></trkpt>
<trkpt lat="54.665734" lon="-2.755181">
<ele>137</ele>
<time>2020-02-20T02:15:08Z</time></trkpt>
<trkpt lat="54.665951" lon="-2.754721">
<ele>135</ele>
<time>2020-02-20T02:15:15Z</time></trkpt>
<trkpt lat="54.666092" lon="-2.754699">
<ele>136</ele>
<time>2020-02-20T02:15:18Z</time></trkpt>
<trkpt lat="54.6667" lon="-2.755819">
<ele>136</ele>
<time>2020-02-20T02:15:36Z</time></trkpt>
<trkpt lat="54.667313" lon="-2.756229">
<ele>138</ele>
<time>2020-02-20T02:15:49Z</time></trkpt>
<trkpt lat="54.667997" lon="-2.757816">
<ele>142</ele>
<time>2020-02-20T02:16:12Z</time></trkpt>
<trkpt lat="54.668732" lon="-2.759012">
<ele>144</ele>
<time>2020-02-20T02:16:32Z</time></trkpt>
<trkpt lat="54.670193" lon="-2.760223">
<ele>150</ele>
<time>2020-02-20T02:17:05Z</time></trkpt>
<trkpt lat="54.67274" lon="-2.76002">
<ele>159</ele>
<time>2020-02-20T02:17:56Z</time></trkpt>
<trkpt lat="54.673175" lon="-2.759925">
<ele>162</ele>
<time>2020-02-20T02:18:05Z</time></trkpt>
<trkpt lat="54.673184" lon="-2.759874">
<ele>163</ele>
<time>2020-02-20T02:18:05Z</time></trkpt>
<trkpt lat="54.675444" lon="-2.760341">
<ele>182</ele>
<time>2020-02-20T02:18:51Z</time></trkpt>
<trkpt lat="54.680488" lon="-2.762904">
<ele>215</ele>
<time>2020-02-20T02:20:36Z</time></trkpt>
<trkpt lat="54.686458" lon="-2.76549">
<ele>197</ele>
<time>2020-02-20T02:22:40Z</time></trkpt>
<trkpt lat="54.68695" lon="-2.765604">
<ele>196</ele>
<time>2020-02-20T02:22:49Z</time></trkpt>
<trkpt lat="54.689436" lon="-2.76555">
<ele>185</ele>
<time>2020-02-20T02:23:39Z</time></trkpt>
<trkpt lat="54.697366" lon="-2.769123">
<ele>156</ele>
<time>2020-02-20T02:26:24Z</time></trkpt>
<trkpt lat="54.697465" lon="-2.769369">
<ele>155</ele>
<time>2020-02-20T02:26:27Z</time></trkpt>
<trkpt lat="54.697391" lon="-2.769899">
<ele>154</ele>
<time>2020-02-20T02:26:33Z</time></trkpt>
<trkpt lat="54.697276" lon="-2.770323">
<ele>154</ele>
<time>2020-02-20T02:26:39Z</time></trkpt>
<trkpt lat="54.697348" lon="-2.770849">
<ele>154</ele>
<time>2020-02-20T02:26:45Z</time></trkpt>
<trkpt lat="54.69755" lon="-2.771133">
<ele>153</ele>
<time>2020-02-20T02:26:50Z</time></trkpt>
<trkpt lat="54.697961" lon="-2.771253">
<ele>152</ele>
<time>2020-02-20T02:26:59Z</time></trkpt>
<trkpt lat="54.698028" lon="-2.771336">
<ele>152</ele>
<time>2020-02-20T02:27:00Z</time></trkpt>
<trkpt lat="54.698085" lon="-2.771516">
<ele>151</ele>
<time>2020-02-20T02:27:03Z</time></trkpt>
<trkpt lat="54.698542" lon="-2.778281">
<ele>142</ele>
<time>2020-02-20T02:28:21Z</time></trkpt>
<trkpt lat="54.699704" lon="-2.780512">
<ele>137</ele>
<time>2020-02-20T02:28:56Z</time></trkpt>
<trkpt lat="54.699346" lon="-2.782599">
<ele>142</ele>
<time>2020-02-20T02:29:21Z</time></trkpt>
<trkpt lat="54.703931" lon="-2.785185">
<ele>137</ele>
<time>2020-02-20T02:30:58Z</time></trkpt>
<trkpt lat="54.70641" lon="-2.788467">
<ele>135</ele>
<time>2020-02-20T02:32:01Z</time></trkpt>
<trkpt lat="54.708671" lon="-2.78932">
<ele>135</ele>
<time>2020-02-20T02:32:47Z</time></trkpt>
<trkpt lat="54.711979" lon="-2.792902">
<ele>135</ele>
<time>2020-02-20T02:34:05Z</time></trkpt>
<trkpt lat="54.713878" lon="-2.794282">
<ele>133</ele>
<time>2020-02-20T02:34:46Z</time></trkpt>
<trkpt lat="54.714745" lon="-2.79517">
<ele>133</ele>
<time>2020-02-20T02:35:07Z</time></trkpt>
<trkpt lat="54.715617" lon="-2.795724">
<ele>132</ele>
<time>2020-02-20T02:35:25Z</time></trkpt>
<trkpt lat="54.716335" lon="-2.795948">
<ele>131</ele>
<time>2020-02-20T02:35:40Z</time></trkpt>
<trkpt lat="54.719429" lon="-2.798329">
<ele>132</ele>
<time>2020-02-20T02:36:48Z</time></trkpt>
<trkpt lat="54.720992" lon="-2.799056">
<ele>129</ele>
<time>2020-02-20T02:37:20Z</time></trkpt>
<trkpt lat="54.722956" lon="-2.799633">
<ele>131</ele>
<time>2020-02-20T02:38:00Z</time></trkpt>
<trkpt lat="54.722802" lon="-2.801371">
<ele>134</ele>
<time>2020-02-20T02:38:20Z</time></trkpt>
<trkpt lat="54.723638" lon="-2.801769">
<ele>132</ele>
<time>2020-02-20T02:38:38Z</time></trkpt>
<trkpt lat="54.725972" lon="-2.803351">
<ele>130</ele>
<time>2020-02-20T02:39:28Z</time></trkpt>
<trkpt lat="54.727455" lon="-2.803328">
<ele>133</ele>
<time>2020-02-20T02:39:58Z</time></trkpt>
<trkpt lat="54.728007" lon="-2.80351">
<ele>133</ele>
<time>2020-02-20T02:40:09Z</time></trkpt>
<trkpt lat="54.730705" lon="-2.805412">
<ele>140</ele>
<time>2020-02-20T02:41:07Z</time></trkpt>
<trkpt lat="54.738123" lon="-2.809569">
<ele>146</ele>
<time>2020-02-20T02:43:44Z</time></trkpt>
<trkpt lat="54.739679" lon="-2.810627">
<ele>143</ele>
<time>2020-02-20T02:44:17Z</time></trkpt>
<trkpt lat="54.742535" lon="-2.814232">
<ele>145</ele>
<time>2020-02-20T02:45:28Z</time></trkpt>
<trkpt lat="54.743521" lon="-2.816129">
<ele>146</ele>
<time>2020-02-20T02:45:57Z</time></trkpt>
<trkpt lat="54.745207" lon="-2.818298">
<ele>144</ele>
<time>2020-02-20T02:46:39Z</time></trkpt>
<trkpt lat="54.747076" lon="-2.820017">
<ele>151</ele>
<time>2020-02-20T02:47:22Z</time></trkpt>
<trkpt lat="54.747607" lon="-2.820137">
<ele>148</ele>
<time>2020-02-20T02:47:33Z</time></trkpt>
<trkpt lat="54.74797" lon="-2.819516">
<ele>148</ele>
<time>2020-02-20T02:47:43Z</time></trkpt>
<trkpt lat="54.748189" lon="-2.819455">
<ele>148</ele>
<time>2020-02-20T02:47:47Z</time></trkpt>
<trkpt lat="54.75113" lon="-2.821705">
<ele>141</ele>
<time>2020-02-20T02:48:52Z</time></trkpt>
<trkpt lat="54.752369" lon="-2.823068">
<ele>143</ele>
<time>2020-02-20T02:49:21Z</time></trkpt>
<trkpt lat="54.752704" lon="-2.823695">
<ele>143</ele>
<time>2020-02-20T02:49:31Z</time></trkpt>
<trkpt lat="54.753475" lon="-2.826463">
<ele>148</ele>
<time>2020-02-20T02:50:06Z</time></trkpt>
<trkpt lat="54.75389" lon="-2.827068">
<ele>146</ele>
<time>2020-02-20T02:50:17Z</time></trkpt>
<trkpt lat="54.754839" lon="-2.829312">
<ele>147</ele>
<time>2020-02-20T02:50:50Z</time></trkpt>
<trkpt lat="54.756369" lon="-2.8314">
<ele>150</ele>
<time>2020-02-20T02:51:29Z</time></trkpt>
<trkpt lat="54.791226" lon="-2.869183">
<ele>147</ele>
<time>2020-02-20T03:05:12Z</time></trkpt>
<trkpt lat="54.809706" lon="-2.889916">
<ele>126</ele>
<time>2020-02-20T03:12:33Z</time></trkpt>
<trkpt lat="54.819147" lon="-2.903352">
<ele>120</ele>
<time>2020-02-20T03:16:38Z</time></trkpt>
<trkpt lat="54.820871" lon="-2.905036">
<ele>114</ele>
<time>2020-02-20T03:17:18Z</time></trkpt>
<trkpt lat="54.821576" lon="-2.905304">
<ele>113</ele>
<time>2020-02-20T03:17:32Z</time></trkpt>
<trkpt lat="54.823429" lon="-2.905226">
<ele>117</ele>
<time>2020-02-20T03:18:09Z</time></trkpt>
<trkpt lat="54.824397" lon="-2.905394">
<ele>119</ele>
<time>2020-02-20T03:18:29Z</time></trkpt>
<trkpt lat="54.827701" lon="-2.907203">
<ele>111</ele>
<time>2020-02-20T03:19:38Z</time></trkpt>
<trkpt lat="54.830564" lon="-2.907921">
<ele>101</ele>
<time>2020-02-20T03:20:36Z</time></trkpt>
<trkpt lat="54.83474" lon="-2.91024">
<ele>95</ele>
<time>2020-02-20T03:22:04Z</time></trkpt>
<trkpt lat="54.83542" lon="-2.910465">
<ele>93</ele>
<time>2020-02-20T03:22:18Z</time></trkpt>
<trkpt lat="54.84048" lon="-2.913801">
<ele>102</ele>
<time>2020-02-20T03:24:06Z</time></trkpt>
<trkpt lat="54.843018" lon="-2.91584">
<ele>89</ele>
<time>2020-02-20T03:25:02Z</time></trkpt>
<trkpt lat="54.844051" lon="-2.916355">
<ele>84</ele>
<time>2020-02-20T03:25:24Z</time></trkpt>
<trkpt lat="54.85048" lon="-2.917323">
<ele>72</ele>
<time>2020-02-20T03:27:33Z</time></trkpt>
<trkpt lat="54.850525" lon="-2.916303">
<ele>72</ele>
<time>2020-02-20T03:27:45Z</time></trkpt>
<trkpt lat="54.856522" lon="-2.917449">
<ele>63</ele>
<time>2020-02-20T03:29:46Z</time></trkpt>
<trkpt lat="54.857201" lon="-2.917004">
<ele>62</ele>
<time>2020-02-20T03:30:00Z</time></trkpt>
<trkpt lat="54.858405" lon="-2.916612">
<ele>62</ele>
<time>2020-02-20T03:30:25Z</time></trkpt>
<trkpt lat="54.859609" lon="-2.915711">
<ele>61</ele>
<time>2020-02-20T03:30:51Z</time></trkpt>
<trkpt lat="54.861351" lon="-2.914767">
<ele>56</ele>
<time>2020-02-20T03:31:28Z</time></trkpt>
<trkpt lat="54.862181" lon="-2.914735">
<ele>54</ele>
<time>2020-02-20T03:31:44Z</time></trkpt>
<trkpt lat="54.864236" lon="-2.916664">
<ele>45</ele>
<time>2020-02-20T03:32:31Z</time></trkpt>
<trkpt lat="54.866196" lon="-2.918829">
<ele>49</ele>
<time>2020-02-20T03:33:18Z</time></trkpt>
<trkpt lat="54.868254" lon="-2.920637">
<ele>44</ele>
<time>2020-02-20T03:34:04Z</time></trkpt>
<trkpt lat="54.871057" lon="-2.921864">
<ele>34</ele>
<time>2020-02-20T03:35:02Z</time></trkpt>
<trkpt lat="54.873159" lon="-2.923919">
<ele>34</ele>
<time>2020-02-20T03:35:50Z</time></trkpt>
<trkpt lat="54.877161" lon="-2.926636">
<ele>36</ele>
<time>2020-02-20T03:37:16Z</time></trkpt>
<trkpt lat="54.878224" lon="-2.92658">
<ele>35</ele>
<time>2020-02-20T03:37:38Z</time></trkpt>
<trkpt lat="54.878819" lon="-2.926899">
<ele>34</ele>
<time>2020-02-20T03:37:50Z</time></trkpt>
<trkpt lat="54.878863" lon="-2.926637">
<ele>33</ele>
<time>2020-02-20T03:37:53Z</time></trkpt>
<trkpt lat="54.879872" lon="-2.927587">
<ele>31</ele>
<time>2020-02-20T03:38:16Z</time></trkpt>
<trkpt lat="54.882095" lon="-2.928301">
<ele>27</ele>
<time>2020-02-20T03:39:01Z</time></trkpt>
<trkpt lat="54.883758" lon="-2.926579">
<ele>27</ele>
<time>2020-02-20T03:39:40Z</time></trkpt>
<trkpt lat="54.884395" lon="-2.92623">
<ele>25</ele>
<time>2020-02-20T03:39:54Z</time></trkpt>
<trkpt lat="54.886315" lon="-2.925726">
<ele>21</ele>
<time>2020-02-20T03:40:32Z</time></trkpt>
<trkpt lat="54.887019" lon="-2.925737">
<ele>21</ele>
<time>2020-02-20T03:40:47Z</time></trkpt>
<trkpt lat="54.888423" lon="-2.926799">
<ele>20</ele>
<time>2020-02-20T03:41:17Z</time></trkpt>
<trkpt lat="54.888854" lon="-2.92674">
<ele>20</ele>
<time>2020-02-20T03:41:26Z</time></trkpt>
<trkpt lat="54.892288" lon="-2.934">
<ele>29</ele>
<time>2020-02-20T03:43:14Z</time></trkpt>
<trkpt lat="54.893701" lon="-2.935339">
<ele>31</ele>
<time>2020-02-20T03:43:47Z</time></trkpt>
<trkpt lat="54.896288" lon="-2.935519">
<ele>25</ele>
<time>2020-02-20T03:44:38Z</time></trkpt>
<trkpt lat="54.896405" lon="-2.935643">
<ele>24</ele>
<time>2020-02-20T03:44:41Z</time></trkpt>
<trkpt lat="54.896799" lon="-2.935276">
<ele>23</ele>
<time>2020-02-20T03:44:50Z</time></trkpt>
<trkpt lat="54.897861" lon="-2.935351">
<ele>16</ele>
<time>2020-02-20T03:45:11Z</time></trkpt>
<trkpt lat="54.898385" lon="-2.935178">
<ele>15</ele>
<time>2020-02-20T03:45:22Z</time></trkpt>
<trkpt lat="54.89887" lon="-2.934424">
<ele>17</ele>
<time>2020-02-20T03:45:35Z</time></trkpt>
<trkpt lat="54.898801" lon="-2.934273">
<ele>17</ele>
<time>2020-02-20T03:45:37Z</time></trkpt>
<trkpt lat="54.898776" lon="-2.934323">
<ele>17</ele>
<time>2020-02-20T03:45:38Z</time></trkpt>
<trkpt lat="54.899268" lon="-2.93507">
<ele>16</ele>
<time>2020-02-20T03:45:51Z</time></trkpt>
<trkpt lat="54.901305" lon="-2.937101">
<ele>23</ele>
<time>2020-02-20T03:46:38Z</time></trkpt>
<trkpt lat="54.90131" lon="-2.937244">
<ele>23</ele>
<time>2020-02-20T03:46:40Z</time></trkpt>
<trkpt lat="54.901399" lon="-2.937314">
<ele>24</ele>
<time>2020-02-20T03:46:42Z</time></trkpt>
<trkpt lat="54.90204" lon="-2.937296">
<ele>30</ele>
<time>2020-02-20T03:46:55Z</time></trkpt>
<trkpt lat="54.903966" lon="-2.937081">
<ele>35</ele>
<time>2020-02-20T03:47:33Z</time></trkpt>
<trkpt lat="54.909326" lon="-2.937567">
<ele>18</ele>
<time>2020-02-20T03:49:21Z</time></trkpt>
<trkpt lat="54.91053" lon="-2.938078">
<ele>20</ele>
<time>2020-02-20T03:49:46Z</time></trkpt>
<trkpt lat="54.912734" lon="-2.940469">
<ele>22</ele>
<time>2020-02-20T03:50:38Z</time></trkpt>
<trkpt lat="54.913527" lon="-2.941066">
<ele>23</ele>
<time>2020-02-20T03:50:55Z</time></trkpt>
<trkpt lat="54.919912" lon="-2.943849">
<ele>28</ele>
<time>2020-02-20T03:53:07Z</time></trkpt>
<trkpt lat="54.923765" lon="-2.944923">
<ele>29</ele>
<time>2020-02-20T03:54:25Z</time></trkpt>
<trkpt lat="54.926778" lon="-2.946242">
<ele>31</ele>
<time>2020-02-20T03:55:27Z</time></trkpt>
<trkpt lat="54.92903" lon="-2.946522">
<ele>36</ele>
<time>2020-02-20T03:56:13Z</time></trkpt>
<trkpt lat="54.929417" lon="-2.946757">
<ele>36</ele>
<time>2020-02-20T03:56:21Z</time></trkpt>
<trkpt lat="54.929886" lon="-2.947325">
<ele>35</ele>
<time>2020-02-20T03:56:32Z</time></trkpt>
<trkpt lat="54.930719" lon="-2.947241">
<ele>33</ele>
<time>2020-02-20T03:56:49Z</time></trkpt>
<trkpt lat="54.931342" lon="-2.94692">
<ele>33</ele>
<time>2020-02-20T03:57:02Z</time></trkpt>
<trkpt lat="54.931525" lon="-2.946903">
<ele>33</ele>
<time>2020-02-20T03:57:06Z</time></trkpt>
<trkpt lat="54.931905" lon="-2.946945">
<ele>32</ele>
<time>2020-02-20T03:57:13Z</time></trkpt>
<trkpt lat="54.933075" lon="-2.946052">
<ele>29</ele>
<time>2020-02-20T03:57:39Z</time></trkpt>
<trkpt lat="54.943176" lon="-2.943813">
<ele>36</ele>
<time>2020-02-20T04:01:03Z</time></trkpt>
<trkpt lat="54.945459" lon="-2.943498">
<ele>23</ele>
<time>2020-02-20T04:01:49Z</time></trkpt>
<trkpt lat="54.950563" lon="-2.94325">
<ele>22</ele>
<time>2020-02-20T04:03:31Z</time></trkpt>
<trkpt lat="54.958151" lon="-2.944723">
<ele>21</ele>
<time>2020-02-20T04:06:04Z</time></trkpt>
<trkpt lat="54.970602" lon="-2.949452">
<ele>17</ele>
<time>2020-02-20T04:10:20Z</time></trkpt>
<trkpt lat="54.971553" lon="-2.94977">
<ele>16</ele>
<time>2020-02-20T04:10:39Z</time></trkpt>
<trkpt lat="54.974785" lon="-2.95031">
<ele>12</ele>
<time>2020-02-20T04:11:44Z</time></trkpt>
<trkpt lat="54.980405" lon="-2.952722">
<ele>10</ele>
<time>2020-02-20T04:13:40Z</time></trkpt>
<trkpt lat="54.981016" lon="-2.952817">
<ele>10</ele>
<time>2020-02-20T04:13:52Z</time></trkpt>
<trkpt lat="54.982129" lon="-2.952696">
<ele>10</ele>
<time>2020-02-20T04:14:15Z</time></trkpt>
<trkpt lat="54.984434" lon="-2.951705">
<ele>15</ele>
<time>2020-02-20T04:15:02Z</time></trkpt>
<trkpt lat="54.985165" lon="-2.951587">
<ele>17</ele>
<time>2020-02-20T04:15:17Z</time></trkpt>
<trkpt lat="54.986168" lon="-2.951555">
<ele>18</ele>
<time>2020-02-20T04:15:37Z</time></trkpt>
<trkpt lat="54.986946" lon="-2.951786">
<ele>22</ele>
<time>2020-02-20T04:15:53Z</time></trkpt>
<trkpt lat="54.988714" lon="-2.952576">
<ele>27</ele>
<time>2020-02-20T04:16:29Z</time></trkpt>
<trkpt lat="54.990053" lon="-2.953658">
<ele>23</ele>
<time>2020-02-20T04:16:59Z</time></trkpt>
<trkpt lat="54.9919" lon="-2.955778">
<ele>24</ele>
<time>2020-02-20T04:17:43Z</time></trkpt>
<trkpt lat="54.996439" lon="-2.958979">
<ele>22</ele>
<time>2020-02-20T04:19:21Z</time></trkpt>
<trkpt lat="54.998926" lon="-2.962476">
<ele>17</ele>
<time>2020-02-20T04:20:25Z</time></trkpt>
<trkpt lat="55.001121" lon="-2.964799">
<ele>17</ele>
<time>2020-02-20T04:21:17Z</time></trkpt>
<trkpt lat="55.0058513" lon="-2.9696495">
<ele>18</ele>
<time>2020-02-20T04:23:07Z</time></trkpt>
<trkpt lat="55.006906" lon="-2.970731">
<ele>18</ele>
<time>2020-02-20T04:23:31Z</time></trkpt>
<trkpt lat="55.008963" lon="-2.972123">
<ele>19</ele>
<time>2020-02-20T04:24:16Z</time></trkpt>
<trkpt lat="55.010239" lon="-2.973488">
<ele>17</ele>
<time>2020-02-20T04:24:46Z</time></trkpt>
<trkpt lat="55.011071" lon="-2.976483">
<ele>14</ele>
<time>2020-02-20T04:25:24Z</time></trkpt>
<trkpt lat="55.011369" lon="-2.980034">
<ele>14</ele>
<time>2020-02-20T04:26:05Z</time></trkpt>
<trkpt lat="55.011561" lon="-2.980746">
<ele>13</ele>
<time>2020-02-20T04:26:14Z</time></trkpt>
<trkpt lat="55.012905" lon="-2.981621">
<ele>13</ele>
<time>2020-02-20T04:26:43Z</time></trkpt>
<trkpt lat="55.019612" lon="-2.985218">
<ele>15</ele>
<time>2020-02-20T04:29:03Z</time></trkpt>
<trkpt lat="55.020237" lon="-2.9849">
<ele>15</ele>
<time>2020-02-20T04:29:16Z</time></trkpt>
<trkpt lat="55.024518" lon="-2.978944">
<ele>14</ele>
<time>2020-02-20T04:31:06Z</time></trkpt>
<trkpt lat="55.027793" lon="-2.975354">
<ele>15</ele>
<time>2020-02-20T04:32:24Z</time></trkpt>
<trkpt lat="55.03163" lon="-2.969576">
<ele>18</ele>
<time>2020-02-20T04:34:05Z</time></trkpt>
<trkpt lat="55.032759" lon="-2.968139">
<ele>21</ele>
<time>2020-02-20T04:34:33Z</time></trkpt>
<trkpt lat="55.034012" lon="-2.96709">
<ele>25</ele>
<time>2020-02-20T04:35:01Z</time></trkpt>
<trkpt lat="55.036418" lon="-2.965459">
<ele>28</ele>
<time>2020-02-20T04:35:53Z</time></trkpt>
<trkpt lat="55.039177" lon="-2.962395">
<ele>33</ele>
<time>2020-02-20T04:36:58Z</time></trkpt>
<trkpt lat="55.042305" lon="-2.96055">
<ele>32</ele>
<time>2020-02-20T04:38:04Z</time></trkpt>
<trkpt lat="55.04648" lon="-2.960507">
<ele>30</ele>
<time>2020-02-20T04:39:28Z</time></trkpt>
<trkpt lat="55.047896" lon="-2.96085">
<ele>28</ele>
<time>2020-02-20T04:39:57Z</time></trkpt>
<trkpt lat="55.04971" lon="-2.960523">
<ele>30</ele>
<time>2020-02-20T04:40:33Z</time></trkpt>
<trkpt lat="55.051176" lon="-2.961022">
<ele>30</ele>
<time>2020-02-20T04:41:03Z</time></trkpt>
<trkpt lat="55.052287" lon="-2.961125">
<ele>32</ele>
<time>2020-02-20T04:41:26Z</time></trkpt>
<trkpt lat="55.053595" lon="-2.96079">
<ele>33</ele>
<time>2020-02-20T04:41:52Z</time></trkpt>
<trkpt lat="55.056103" lon="-2.959657">
<ele>37</ele>
<time>2020-02-20T04:42:44Z</time></trkpt>
<trkpt lat="55.05599" lon="-2.95904">
<ele>36</ele>
<time>2020-02-20T04:42:51Z</time></trkpt>
<trkpt lat="55.056082" lon="-2.958653">
<ele>36</ele>
<time>2020-02-20T04:42:56Z</time></trkpt>
<trkpt lat="55.058083" lon="-2.955444">
<ele>39</ele>
<time>2020-02-20T04:43:51Z</time></trkpt>
<trkpt lat="55.060422" lon="-2.950272">
<ele>33</ele>
<time>2020-02-20T04:45:06Z</time></trkpt>
<trkpt lat="55.060719" lon="-2.949993">
<ele>35</ele>
<time>2020-02-20T04:45:13Z</time></trkpt>
<trkpt lat="55.062252" lon="-2.949344">
<ele>36</ele>
<time>2020-02-20T04:45:45Z</time></trkpt>
<trkpt lat="55.063595" lon="-2.949234">
<ele>37</ele>
<time>2020-02-20T04:46:12Z</time></trkpt>
<trkpt lat="55.064806" lon="-2.947088">
<ele>28</ele>
<time>2020-02-20T04:46:46Z</time></trkpt>
<trkpt lat="55.065002" lon="-2.946858">
<ele>27</ele>
<time>2020-02-20T04:46:51Z</time></trkpt>
<trkpt lat="55.065333" lon="-2.946699">
<ele>27</ele>
<time>2020-02-20T04:46:58Z</time></trkpt>
<trkpt lat="55.067403" lon="-2.946798">
<ele>30</ele>
<time>2020-02-20T04:47:39Z</time></trkpt>
<trkpt lat="55.071616" lon="-2.947936">
<ele>46</ele>
<time>2020-02-20T04:49:05Z</time></trkpt>
<trkpt lat="55.073265" lon="-2.948749">
<ele>41</ele>
<time>2020-02-20T04:49:39Z</time></trkpt>
<trkpt lat="55.074108" lon="-2.949424">
<ele>38</ele>
<time>2020-02-20T04:49:58Z</time></trkpt>
<trkpt lat="55.075354" lon="-2.952728">
<ele>47</ele>
<time>2020-02-20T04:50:43Z</time></trkpt>
<trkpt lat="55.075845" lon="-2.953587">
<ele>47</ele>
<time>2020-02-20T04:50:57Z</time></trkpt>
<trkpt lat="55.076325" lon="-2.953797">
<ele>48</ele>
<time>2020-02-20T04:51:07Z</time></trkpt>
<trkpt lat="55.077114" lon="-2.953787">
<ele>48</ele>
<time>2020-02-20T04:51:23Z</time></trkpt>
<trkpt lat="55.078326" lon="-2.953208">
<ele>44</ele>
<time>2020-02-20T04:51:48Z</time></trkpt>
<trkpt lat="55.079331" lon="-2.95147">
<ele>36</ele>
<time>2020-02-20T04:52:16Z</time></trkpt>
<trkpt lat="55.079503" lon="-2.950911">
<ele>36</ele>
<time>2020-02-20T04:52:23Z</time></trkpt>
<trkpt lat="55.079783" lon="-2.949753">
<ele>34</ele>
<time>2020-02-20T04:52:38Z</time></trkpt>
<trkpt lat="55.0796" lon="-2.947088">
<ele>44</ele>
<time>2020-02-20T04:53:09Z</time></trkpt>
<trkpt lat="55.080861" lon="-2.94454">
<ele>56</ele>
<time>2020-02-20T04:53:47Z</time></trkpt>
<trkpt lat="55.082051" lon="-2.938458">
<ele>79</ele>
<time>2020-02-20T04:55:01Z</time></trkpt>
<trkpt lat="55.083798" lon="-2.93122">
<ele>77</ele>
<time>2020-02-20T04:56:31Z</time></trkpt>
<trkpt lat="55.08903" lon="-2.92237">
<ele>85</ele>
<time>2020-02-20T04:58:57Z</time></trkpt>
<trkpt lat="55.090674" lon="-2.917407">
<ele>76</ele>
<time>2020-02-20T05:00:03Z</time></trkpt>
<trkpt lat="55.09083" lon="-2.916622">
<ele>76</ele>
<time>2020-02-20T05:00:12Z</time></trkpt>
<trkpt lat="55.090791" lon="-2.915673">
<ele>74</ele>
<time>2020-02-20T05:00:23Z</time></trkpt>
<trkpt lat="55.089913" lon="-2.913764">
<ele>68</ele>
<time>2020-02-20T05:00:51Z</time></trkpt>
<trkpt lat="55.089657" lon="-2.91259">
<ele>69</ele>
<time>2020-02-20T05:01:06Z</time></trkpt>
<trkpt lat="55.089904" lon="-2.910933">
<ele>78</ele>
<time>2020-02-20T05:01:25Z</time></trkpt>
<trkpt lat="55.089914" lon="-2.907669">
<ele>91</ele>
<time>2020-02-20T05:02:03Z</time></trkpt>
<trkpt lat="55.09013" lon="-2.906646">
<ele>94</ele>
<time>2020-02-20T05:02:15Z</time></trkpt>
<trkpt lat="55.092907" lon="-2.902274">
<ele>110</ele>
<time>2020-02-20T05:03:30Z</time></trkpt>
<trkpt lat="55.094875" lon="-2.900039">
<ele>112</ele>
<time>2020-02-20T05:04:17Z</time></trkpt>
<trkpt lat="55.09776" lon="-2.892244">
<ele>122</ele>
<time>2020-02-20T05:06:04Z</time></trkpt>
<trkpt lat="55.0984851" lon="-2.8910775">
<ele>120</ele>
<time>2020-02-20T05:06:23Z</time></trkpt>
<trkpt lat="55.102252" lon="-2.885187">
<ele>130</ele>
<time>2020-02-20T05:08:05Z</time></trkpt>
<trkpt lat="55.102975" lon="-2.884516">
<ele>130</ele>
<time>2020-02-20T05:08:21Z</time></trkpt>
<trkpt lat="55.104889" lon="-2.883335">
<ele>130</ele>
<time>2020-02-20T05:09:02Z</time></trkpt>
<trkpt lat="55.10653" lon="-2.883099">
<ele>132</ele>
<time>2020-02-20T05:09:35Z</time></trkpt>
<trkpt lat="55.108094" lon="-2.882269">
<ele>130</ele>
<time>2020-02-20T05:10:07Z</time></trkpt>
<trkpt lat="55.109077" lon="-2.882308">
<ele>131</ele>
<time>2020-02-20T05:10:27Z</time></trkpt>
<trkpt lat="55.11" lon="-2.882057">
<ele>129</ele>
<time>2020-02-20T05:10:46Z</time></trkpt>
<trkpt lat="55.110947" lon="-2.882107">
<ele>129</ele>
<time>2020-02-20T05:11:05Z</time></trkpt>
<trkpt lat="55.111209" lon="-2.881906">
<ele>128</ele>
<time>2020-02-20T05:11:11Z</time></trkpt>
<trkpt lat="55.111929" lon="-2.878879">
<ele>130</ele>
<time>2020-02-20T05:11:48Z</time></trkpt>
<trkpt lat="55.114257" lon="-2.873074">
<ele>130</ele>
<time>2020-02-20T05:13:09Z</time></trkpt>
<trkpt lat="55.118013" lon="-2.860602">
<ele>103</ele>
<time>2020-02-20T05:15:51Z</time></trkpt>
<trkpt lat="55.117729" lon="-2.859857">
<ele>105</ele>
<time>2020-02-20T05:16:01Z</time></trkpt>
<trkpt lat="55.116754" lon="-2.858995">
<ele>109</ele>
<time>2020-02-20T05:16:23Z</time></trkpt>
<trkpt lat="55.116593" lon="-2.858649">
<ele>110</ele>
<time>2020-02-20T05:16:28Z</time></trkpt>
<trkpt lat="55.116514" lon="-2.857548">
<ele>114</ele>
<time>2020-02-20T05:16:41Z</time></trkpt>
<trkpt lat="55.116728" lon="-2.856354">
<ele>118</ele>
<time>2020-02-20T05:16:55Z</time></trkpt>
<trkpt lat="55.118089" lon="-2.853678">
<ele>131</ele>
<time>2020-02-20T05:17:36Z</time></trkpt>
<trkpt lat="55.11949" lon="-2.851938">
<ele>139</ele>
<time>2020-02-20T05:18:11Z</time></trkpt>
<trkpt lat="55.122635" lon="-2.848523">
<ele>144</ele>
<time>2020-02-20T05:19:25Z</time></trkpt>
<trkpt lat="55.125293" lon="-2.84492">
<ele>141</ele>
<time>2020-02-20T05:20:32Z</time></trkpt>
<trkpt lat="55.128117" lon="-2.841912">
<ele>135</ele>
<time>2020-02-20T05:21:39Z</time></trkpt>
<trkpt lat="55.129433" lon="-2.841018">
<ele>128</ele>
<time>2020-02-20T05:22:07Z</time></trkpt>
<trkpt lat="55.130771" lon="-2.840511">
<ele>120</ele>
<time>2020-02-20T05:22:34Z</time></trkpt>
<trkpt lat="55.132111" lon="-2.840233">
<ele>120</ele>
<time>2020-02-20T05:23:01Z</time></trkpt>
<trkpt lat="55.132578" lon="-2.839687">
<ele>120</ele>
<time>2020-02-20T05:23:13Z</time></trkpt>
<trkpt lat="55.132951" lon="-2.838773">
<ele>120</ele>
<time>2020-02-20T05:23:25Z</time></trkpt>
<trkpt lat="55.133521" lon="-2.837915">
<ele>118</ele>
<time>2020-02-20T05:23:40Z</time></trkpt>
<trkpt lat="55.137321" lon="-2.834597">
<ele>99</ele>
<time>2020-02-20T05:25:06Z</time></trkpt>
<trkpt lat="55.137843" lon="-2.833757">
<ele>98</ele>
<time>2020-02-20T05:25:20Z</time></trkpt>
<trkpt lat="55.138558" lon="-2.831113">
<ele>93</ele>
<time>2020-02-20T05:25:53Z</time></trkpt>
<trkpt lat="55.139664" lon="-2.829467">
<ele>92</ele>
<time>2020-02-20T05:26:22Z</time></trkpt>
<trkpt lat="55.140054" lon="-2.829529">
<ele>92</ele>
<time>2020-02-20T05:26:30Z</time></trkpt>
<trkpt lat="55.140825" lon="-2.830789">
<ele>90</ele>
<time>2020-02-20T05:26:51Z</time></trkpt>
<trkpt lat="55.141535" lon="-2.831461">
<ele>95</ele>
<time>2020-02-20T05:27:08Z</time></trkpt>
<trkpt lat="55.142695" lon="-2.8302">
<ele>104</ele>
<time>2020-02-20T05:27:35Z</time></trkpt>
<trkpt lat="55.143389" lon="-2.8298">
<ele>100</ele>
<time>2020-02-20T05:27:50Z</time></trkpt>
<trkpt lat="55.144941" lon="-2.830038">
<ele>101</ele>
<time>2020-02-20T05:28:21Z</time></trkpt>
<trkpt lat="55.147243" lon="-2.82953">
<ele>100</ele>
<time>2020-02-20T05:29:07Z</time></trkpt>
<trkpt lat="55.147503" lon="-2.829245">
<ele>99</ele>
<time>2020-02-20T05:29:13Z</time></trkpt>
<trkpt lat="55.14846" lon="-2.827049">
<ele>106</ele>
<time>2020-02-20T05:29:45Z</time></trkpt>
<trkpt lat="55.148923" lon="-2.826624">
<ele>108</ele>
<time>2020-02-20T05:29:56Z</time></trkpt>
<trkpt lat="55.14952" lon="-2.826362">
<ele>109</ele>
<time>2020-02-20T05:30:08Z</time></trkpt>
<trkpt lat="55.15019" lon="-2.826362">
<ele>110</ele>
<time>2020-02-20T05:30:21Z</time></trkpt>
<trkpt lat="55.151603" lon="-2.827092">
<ele>106</ele>
<time>2020-02-20T05:30:51Z</time></trkpt>
<trkpt lat="55.153025" lon="-2.825589">
<ele>108</ele>
<time>2020-02-20T05:31:24Z</time></trkpt>
<trkpt lat="55.158749" lon="-2.823813">
<ele>112</ele>
<time>2020-02-20T05:33:21Z</time></trkpt>
<trkpt lat="55.160386" lon="-2.823807">
<ele>112</ele>
<time>2020-02-20T05:33:53Z</time></trkpt>
<trkpt lat="55.162554" lon="-2.825363">
<ele>105</ele>
<time>2020-02-20T05:34:40Z</time></trkpt>
<trkpt lat="55.163435" lon="-2.825388">
<ele>103</ele>
<time>2020-02-20T05:34:58Z</time></trkpt>
<trkpt lat="55.16407" lon="-2.825137">
<ele>102</ele>
<time>2020-02-20T05:35:11Z</time></trkpt>
<trkpt lat="55.166165" lon="-2.823331">
<ele>101</ele>
<time>2020-02-20T05:35:58Z</time></trkpt>
<trkpt lat="55.170614" lon="-2.81999">
<ele>101</ele>
<time>2020-02-20T05:37:35Z</time></trkpt>
<trkpt lat="55.171027" lon="-2.819778">
<ele>102</ele>
<time>2020-02-20T05:37:43Z</time></trkpt>
<trkpt lat="55.172298" lon="-2.819566">
<ele>103</ele>
<time>2020-02-20T05:38:09Z</time></trkpt>
<trkpt lat="55.1727" lon="-2.819277">
<ele>99</ele>
<time>2020-02-20T05:38:18Z</time></trkpt>
<trkpt lat="55.186089" lon="-2.807003">
<ele>106</ele>
<time>2020-02-20T05:43:21Z</time></trkpt>
<trkpt lat="55.186126" lon="-2.806786">
<ele>105</ele>
<time>2020-02-20T05:43:23Z</time></trkpt>
<trkpt lat="55.185908" lon="-2.806566">
<ele>104</ele>
<time>2020-02-20T05:43:28Z</time></trkpt>
<trkpt lat="55.18567" lon="-2.806622">
<ele>103</ele>
<time>2020-02-20T05:43:33Z</time></trkpt>
<trkpt lat="55.185908" lon="-2.806566">
<ele>104</ele>
<time>2020-02-20T05:43:38Z</time></trkpt>
<trkpt lat="55.186126" lon="-2.806786">
<ele>105</ele>
<time>2020-02-20T05:43:43Z</time></trkpt>
<trkpt lat="55.186089" lon="-2.807003">
<ele>106</ele>
<time>2020-02-20T05:43:45Z</time></trkpt>
<trkpt lat="55.187171" lon="-2.806713">
<ele>107</ele>
<time>2020-02-20T05:44:07Z</time></trkpt>
<trkpt lat="55.189686" lon="-2.804779">
<ele>109</ele>
<time>2020-02-20T05:45:02Z</time></trkpt>
<trkpt lat="55.193485" lon="-2.802987">
<ele>109</ele>
<time>2020-02-20T05:46:21Z</time></trkpt>
<trkpt lat="55.194964" lon="-2.80062">
<ele>111</ele>
<time>2020-02-20T05:47:01Z</time></trkpt>
<trkpt lat="55.195577" lon="-2.800226">
<ele>115</ele>
<time>2020-02-20T05:47:14Z</time></trkpt>
<trkpt lat="55.197091" lon="-2.798333">
<ele>114</ele>
<time>2020-02-20T05:47:52Z</time></trkpt>
<trkpt lat="55.197942" lon="-2.794759">
<ele>108</ele>
<time>2020-02-20T05:48:36Z</time></trkpt>
<trkpt lat="55.1978" lon="-2.793014">
<ele>112</ele>
<time>2020-02-20T05:48:56Z</time></trkpt>
<trkpt lat="55.197843" lon="-2.792954">
<ele>113</ele>
<time>2020-02-20T05:48:57Z</time></trkpt>
<trkpt lat="55.198293" lon="-2.79305">
<ele>113</ele>
<time>2020-02-20T05:49:06Z</time></trkpt>
<trkpt lat="55.19931" lon="-2.792751">
<ele>118</ele>
<time>2020-02-20T05:49:27Z</time></trkpt>
<trkpt lat="55.200467" lon="-2.792778">
<ele>117</ele>
<time>2020-02-20T05:49:50Z</time></trkpt>
<trkpt lat="55.2018" lon="-2.792041">
<ele>120</ele>
<time>2020-02-20T05:50:18Z</time></trkpt>
<trkpt lat="55.20312" lon="-2.791738">
<ele>117</ele>
<time>2020-02-20T05:50:45Z</time></trkpt>
<trkpt lat="55.204217" lon="-2.79188">
<ele>113</ele>
<time>2020-02-20T05:51:07Z</time></trkpt>
<trkpt lat="55.205204" lon="-2.791762">
<ele>115</ele>
<time>2020-02-20T05:51:27Z</time></trkpt>
<trkpt lat="55.206679" lon="-2.791328">
<ele>116</ele>
<time>2020-02-20T05:51:57Z</time></trkpt>
<trkpt lat="55.207921" lon="-2.790401">
<ele>118</ele>
<time>2020-02-20T05:52:24Z</time></trkpt>
<trkpt lat="55.208561" lon="-2.790195">
<ele>118</ele>
<time>2020-02-20T05:52:37Z</time></trkpt>
<trkpt lat="55.209959" lon="-2.789047">
<ele>126</ele>
<time>2020-02-20T05:53:08Z</time></trkpt>
<trkpt lat="55.212069" lon="-2.788688">
<ele>127</ele>
<time>2020-02-20T05:53:50Z</time></trkpt>
<trkpt lat="55.214593" lon="-2.787323">
<ele>124</ele>
<time>2020-02-20T05:54:43Z</time></trkpt>
<trkpt lat="55.215304" lon="-2.787201">
<ele>122</ele>
<time>2020-02-20T05:54:57Z</time></trkpt>
<trkpt lat="55.215881" lon="-2.786634">
<ele>123</ele>
<time>2020-02-20T05:55:11Z</time></trkpt>
<trkpt lat="55.217666" lon="-2.786808">
<ele>128</ele>
<time>2020-02-20T05:55:47Z</time></trkpt>
<trkpt lat="55.218904" lon="-2.786513">
<ele>128</ele>
<time>2020-02-20T05:56:12Z</time></trkpt>
<trkpt lat="55.21993" lon="-2.78567">
<ele>129</ele>
<time>2020-02-20T05:56:34Z</time></trkpt>
<trkpt lat="55.220379" lon="-2.784272">
<ele>131</ele>
<time>2020-02-20T05:56:53Z</time></trkpt>
<trkpt lat="55.220823" lon="-2.783706">
<ele>129</ele>
<time>2020-02-20T05:57:04Z</time></trkpt>
<trkpt lat="55.222952" lon="-2.782803">
<ele>131</ele>
<time>2020-02-20T05:57:48Z</time></trkpt>
<trkpt lat="55.224638" lon="-2.782631">
<ele>131</ele>
<time>2020-02-20T05:58:21Z</time></trkpt>
<trkpt lat="55.225497" lon="-2.782144">
<ele>135</ele>
<time>2020-02-20T05:58:39Z</time></trkpt>
<trkpt lat="55.225856" lon="-2.7821">
<ele>136</ele>
<time>2020-02-20T05:58:47Z</time></trkpt>
<trkpt lat="55.226716" lon="-2.780321">
<ele>132</ele>
<time>2020-02-20T05:59:13Z</time></trkpt>
<trkpt lat="55.227343" lon="-2.77939">
<ele>133</ele>
<time>2020-02-20T05:59:30Z</time></trkpt>
<trkpt lat="55.227808" lon="-2.779001">
<ele>133</ele>
<time>2020-02-20T05:59:40Z</time></trkpt>
<trkpt lat="55.229388" lon="-2.778561">
<ele>134</ele>
<time>2020-02-20T06:00:12Z</time></trkpt>
<trkpt lat="55.231232" lon="-2.778353">
<ele>135</ele>
<time>2020-02-20T06:00:49Z</time></trkpt>
<trkpt lat="55.231808" lon="-2.778153">
<ele>135</ele>
<time>2020-02-20T06:01:01Z</time></trkpt>
<trkpt lat="55.232511" lon="-2.777588">
<ele>134</ele>
<time>2020-02-20T06:01:16Z</time></trkpt>
<trkpt lat="55.234859" lon="-2.777272">
<ele>137</ele>
<time>2020-02-20T06:02:04Z</time></trkpt>
<trkpt lat="55.237318" lon="-2.776369">
<ele>145</ele>
<time>2020-02-20T06:02:54Z</time></trkpt>
<trkpt lat="55.238225" lon="-2.776235">
<ele>149</ele>
<time>2020-02-20T06:03:12Z</time></trkpt>
<trkpt lat="55.239304" lon="-2.77634">
<ele>147</ele>
<time>2020-02-20T06:03:34Z</time></trkpt>
<trkpt lat="55.241248" lon="-2.777426">
<ele>144</ele>
<time>2020-02-20T06:04:15Z</time></trkpt>
<trkpt lat="55.242912" lon="-2.7776">
<ele>140</ele>
<time>2020-02-20T06:04:48Z</time></trkpt>
<trkpt lat="55.245067" lon="-2.775656">
<ele>144</ele>
<time>2020-02-20T06:05:37Z</time></trkpt>
<trkpt lat="55.246589" lon="-2.774872">
<ele>145</ele>
<time>2020-02-20T06:06:08Z</time></trkpt>
<trkpt lat="55.246868" lon="-2.77495">
<ele>146</ele>
<time>2020-02-20T06:06:14Z</time></trkpt>
<trkpt lat="55.248555" lon="-2.776349">
<ele>148</ele>
<time>2020-02-20T06:06:52Z</time></trkpt>
<trkpt lat="55.248878" lon="-2.776071">
<ele>147</ele>
<time>2020-02-20T06:06:59Z</time></trkpt>
<trkpt lat="55.250793" lon="-2.775833">
<ele>151</ele>
<time>2020-02-20T06:07:37Z</time></trkpt>
<trkpt lat="55.251251" lon="-2.776269">
<ele>153</ele>
<time>2020-02-20T06:07:48Z</time></trkpt>
<trkpt lat="55.252124" lon="-2.777893">
<ele>156</ele>
<time>2020-02-20T06:08:13Z</time></trkpt>
<trkpt lat="55.252934" lon="-2.778632">
<ele>158</ele>
<time>2020-02-20T06:08:31Z</time></trkpt>
<trkpt lat="55.253236" lon="-2.778689">
<ele>160</ele>
<time>2020-02-20T06:08:38Z</time></trkpt>
<trkpt lat="55.254424" lon="-2.778351">
<ele>166</ele>
<time>2020-02-20T06:09:02Z</time></trkpt>
<trkpt lat="55.25533" lon="-2.777839">
<ele>169</ele>
<time>2020-02-20T06:09:21Z</time></trkpt>
<trkpt lat="55.255691" lon="-2.777979">
<ele>167</ele>
<time>2020-02-20T06:09:28Z</time></trkpt>
<trkpt lat="55.256456" lon="-2.778891">
<ele>171</ele>
<time>2020-02-20T06:09:47Z</time></trkpt>
<trkpt lat="55.257719" lon="-2.776616">
<ele>168</ele>
<time>2020-02-20T06:10:23Z</time></trkpt>
<trkpt lat="55.258374" lon="-2.776176">
<ele>170</ele>
<time>2020-02-20T06:10:37Z</time></trkpt>
<trkpt lat="55.259568" lon="-2.776547">
<ele>172</ele>
<time>2020-02-20T06:11:01Z</time></trkpt>
<trkpt lat="55.26195" lon="-2.776111">
<ele>173</ele>
<time>2020-02-20T06:11:49Z</time></trkpt>
<trkpt lat="55.263756" lon="-2.777519">
<ele>178</ele>
<time>2020-02-20T06:12:29Z</time></trkpt>
<trkpt lat="55.265498" lon="-2.776791">
<ele>180</ele>
<time>2020-02-20T06:13:05Z</time></trkpt>
<trkpt lat="55.266649" lon="-2.777306">
<ele>185</ele>
<time>2020-02-20T06:13:29Z</time></trkpt>
<trkpt lat="55.268416" lon="-2.776659">
<ele>186</ele>
<time>2020-02-20T06:14:05Z</time></trkpt>
<trkpt lat="55.268757" lon="-2.776364">
<ele>187</ele>
<time>2020-02-20T06:14:12Z</time></trkpt>
<trkpt lat="55.270375" lon="-2.773718">
<ele>192</ele>
<time>2020-02-20T06:14:57Z</time></trkpt>
<trkpt lat="55.270719" lon="-2.772877">
<ele>197</ele>
<time>2020-02-20T06:15:08Z</time></trkpt>
<trkpt lat="55.27179" lon="-2.772826">
<ele>195</ele>
<time>2020-02-20T06:15:30Z</time></trkpt>
<trkpt lat="55.272678" lon="-2.772575">
<ele>197</ele>
<time>2020-02-20T06:15:48Z</time></trkpt>
<trkpt lat="55.273" lon="-2.772422">
<ele>198</ele>
<time>2020-02-20T06:15:55Z</time></trkpt>
<trkpt lat="55.273836" lon="-2.771434">
<ele>204</ele>
<time>2020-02-20T06:16:15Z</time></trkpt>
<trkpt lat="55.274685" lon="-2.767724">
<ele>217</ele>
<time>2020-02-20T06:17:00Z</time></trkpt>
<trkpt lat="55.275485" lon="-2.766379">
<ele>224</ele>
<time>2020-02-20T06:17:23Z</time></trkpt>
<trkpt lat="55.276059" lon="-2.765762">
<ele>224</ele>
<time>2020-02-20T06:17:36Z</time></trkpt>
<trkpt lat="55.277112" lon="-2.763312">
<ele>232</ele>
<time>2020-02-20T06:18:11Z</time></trkpt>
<trkpt lat="55.27797" lon="-2.762107">
<ele>239</ele>
<time>2020-02-20T06:18:33Z</time></trkpt>
<trkpt lat="55.278418" lon="-2.761994">
<ele>238</ele>
<time>2020-02-20T06:18:42Z</time></trkpt>
<trkpt lat="55.279687" lon="-2.760783">
<ele>245</ele>
<time>2020-02-20T06:19:11Z</time></trkpt>
<trkpt lat="55.280362" lon="-2.760599">
<ele>248</ele>
<time>2020-02-20T06:19:25Z</time></trkpt>
<trkpt lat="55.280767" lon="-2.760271">
<ele>246</ele>
<time>2020-02-20T06:19:34Z</time></trkpt>
<trkpt lat="55.281187" lon="-2.760227">
<ele>248</ele>
<time>2020-02-20T06:19:42Z</time></trkpt>
<trkpt lat="55.281493" lon="-2.759798">
<ele>248</ele>
<time>2020-02-20T06:19:50Z</time></trkpt>
<trkpt lat="55.282024" lon="-2.759591">
<ele>252</ele>
<time>2020-02-20T06:20:01Z</time></trkpt>
<trkpt lat="55.283458" lon="-2.757607">
<ele>260</ele>
<time>2020-02-20T06:20:38Z</time></trkpt>
<trkpt lat="55.284528" lon="-2.756853">
<ele>267</ele>
<time>2020-02-20T06:21:01Z</time></trkpt>
<trkpt lat="55.285712" lon="-2.756497">
<ele>273</ele>
<time>2020-02-20T06:21:25Z</time></trkpt>
<trkpt lat="55.286468" lon="-2.755956">
<ele>275</ele>
<time>2020-02-20T06:21:41Z</time></trkpt>
<trkpt lat="55.288047" lon="-2.754498">
<ele>284</ele>
<time>2020-02-20T06:22:17Z</time></trkpt>
<trkpt lat="55.288559" lon="-2.7536">
<ele>285</ele>
<time>2020-02-20T06:22:31Z</time></trkpt>
<trkpt lat="55.291026" lon="-2.750601">
<ele>298</ele>
<time>2020-02-20T06:23:31Z</time></trkpt>
<trkpt lat="55.29157" lon="-2.750172">
<ele>300</ele>
<time>2020-02-20T06:23:43Z</time></trkpt>
<trkpt lat="55.291975" lon="-2.749359">
<ele>302</ele>
<time>2020-02-20T06:23:56Z</time></trkpt>
<trkpt lat="55.293101" lon="-2.748146">
<ele>304</ele>
<time>2020-02-20T06:24:22Z</time></trkpt>
<trkpt lat="55.294112" lon="-2.747611">
<ele>307</ele>
<time>2020-02-20T06:24:43Z</time></trkpt>
<trkpt lat="55.29642" lon="-2.745783">
<ele>315</ele>
<time>2020-02-20T06:25:34Z</time></trkpt>
<trkpt lat="55.297709" lon="-2.746215">
<ele>320</ele>
<time>2020-02-20T06:26:00Z</time></trkpt>
<trkpt lat="55.298152" lon="-2.746247">
<ele>323</ele>
<time>2020-02-20T06:26:09Z</time></trkpt>
<trkpt lat="55.298918" lon="-2.745989">
<ele>327</ele>
<time>2020-02-20T06:26:25Z</time></trkpt>
<trkpt lat="55.305168" lon="-2.736503">
<ele>367</ele>
<time>2020-02-20T06:29:10Z</time></trkpt>
<trkpt lat="55.306612" lon="-2.734701">
<ele>372</ele>
<time>2020-02-20T06:29:46Z</time></trkpt>
<trkpt lat="55.310635" lon="-2.731448">
<ele>347</ele>
<time>2020-02-20T06:31:15Z</time></trkpt>
<trkpt lat="55.311559" lon="-2.73015">
<ele>340</ele>
<time>2020-02-20T06:31:38Z</time></trkpt>
<trkpt lat="55.31285" lon="-2.72999">
<ele>327</ele>
<time>2020-02-20T06:32:04Z</time></trkpt>
<trkpt lat="55.31355" lon="-2.729735">
<ele>323</ele>
<time>2020-02-20T06:32:19Z</time></trkpt>
<trkpt lat="55.314736" lon="-2.729126">
<ele>311</ele>
<time>2020-02-20T06:32:43Z</time></trkpt>
<trkpt lat="55.315894" lon="-2.728089">
<ele>303</ele>
<time>2020-02-20T06:33:09Z</time></trkpt>
<trkpt lat="55.316253" lon="-2.728584">
<ele>299</ele>
<time>2020-02-20T06:33:19Z</time></trkpt>
<trkpt lat="55.320996" lon="-2.730268">
<ele>271</ele>
<time>2020-02-20T06:34:56Z</time></trkpt>
<trkpt lat="55.32143" lon="-2.730608">
<ele>270</ele>
<time>2020-02-20T06:35:05Z</time></trkpt>
<trkpt lat="55.321971" lon="-2.731373">
<ele>265</ele>
<time>2020-02-20T06:35:19Z</time></trkpt>
<trkpt lat="55.323576" lon="-2.731067">
<ele>263</ele>
<time>2020-02-20T06:35:51Z</time></trkpt>
<trkpt lat="55.324843" lon="-2.731288">
<ele>259</ele>
<time>2020-02-20T06:36:17Z</time></trkpt>
<trkpt lat="55.327111" lon="-2.732525">
<ele>254</ele>
<time>2020-02-20T06:37:04Z</time></trkpt>
<trkpt lat="55.327483" lon="-2.732966">
<ele>253</ele>
<time>2020-02-20T06:37:13Z</time></trkpt>
<trkpt lat="55.32803" lon="-2.73438">
<ele>249</ele>
<time>2020-02-20T06:37:33Z</time></trkpt>
<trkpt lat="55.328311" lon="-2.736994">
<ele>250</ele>
<time>2020-02-20T06:38:03Z</time></trkpt>
<trkpt lat="55.328689" lon="-2.737773">
<ele>250</ele>
<time>2020-02-20T06:38:15Z</time></trkpt>
<trkpt lat="55.329307" lon="-2.738037">
<ele>250</ele>
<time>2020-02-20T06:38:28Z</time></trkpt>
<trkpt lat="55.330106" lon="-2.737869">
<ele>251</ele>
<time>2020-02-20T06:38:44Z</time></trkpt>
<trkpt lat="55.333008" lon="-2.737966">
<ele>248</ele>
<time>2020-02-20T06:39:42Z</time></trkpt>
<trkpt lat="55.333499" lon="-2.738838">
<ele>248</ele>
<time>2020-02-20T06:39:56Z</time></trkpt>
<trkpt lat="55.33439" lon="-2.741836">
<ele>245</ele>
<time>2020-02-20T06:40:34Z</time></trkpt>
<trkpt lat="55.334951" lon="-2.742718">
<ele>241</ele>
<time>2020-02-20T06:40:50Z</time></trkpt>
<trkpt lat="55.335875" lon="-2.743237">
<ele>241</ele>
<time>2020-02-20T06:41:09Z</time></trkpt>
<trkpt lat="55.336137" lon="-2.743246">
<ele>239</ele>
<time>2020-02-20T06:41:14Z</time></trkpt>
<trkpt lat="55.336567" lon="-2.74291">
<ele>243</ele>
<time>2020-02-20T06:41:24Z</time></trkpt>
<trkpt lat="55.336839" lon="-2.742984">
<ele>240</ele>
<time>2020-02-20T06:41:29Z</time></trkpt>
<trkpt lat="55.338609" lon="-2.744531">
<ele>235</ele>
<time>2020-02-20T06:42:09Z</time></trkpt>
<trkpt lat="55.340361" lon="-2.746767">
<ele>227</ele>
<time>2020-02-20T06:42:52Z</time></trkpt>
<trkpt lat="55.341589" lon="-2.747871">
<ele>224</ele>
<time>2020-02-20T06:43:20Z</time></trkpt>
<trkpt lat="55.342279" lon="-2.748176">
<ele>225</ele>
<time>2020-02-20T06:43:34Z</time></trkpt>
<trkpt lat="55.342794" lon="-2.748935">
<ele>223</ele>
<time>2020-02-20T06:43:47Z</time></trkpt>
<trkpt lat="55.344165" lon="-2.750067">
<ele>218</ele>
<time>2020-02-20T06:44:18Z</time></trkpt>
<trkpt lat="55.34574" lon="-2.750414">
<ele>218</ele>
<time>2020-02-20T06:44:50Z</time></trkpt>
<trkpt lat="55.346795" lon="-2.750456">
<ele>220</ele>
<time>2020-02-20T06:45:11Z</time></trkpt>
<trkpt lat="55.348003" lon="-2.751109">
<ele>220</ele>
<time>2020-02-20T06:45:36Z</time></trkpt>
<trkpt lat="55.348262" lon="-2.751092">
<ele>221</ele>
<time>2020-02-20T06:45:41Z</time></trkpt>
<trkpt lat="55.348888" lon="-2.750589">
<ele>225</ele>
<time>2020-02-20T06:45:55Z</time></trkpt>
<trkpt lat="55.34962" lon="-2.748961">
<ele>232</ele>
<time>2020-02-20T06:46:19Z</time></trkpt>
<trkpt lat="55.350351" lon="-2.747967">
<ele>237</ele>
<time>2020-02-20T06:46:37Z</time></trkpt>
<trkpt lat="55.351988" lon="-2.747477">
<ele>237</ele>
<time>2020-02-20T06:47:11Z</time></trkpt>
<trkpt lat="55.353183" lon="-2.746595">
<ele>243</ele>
<time>2020-02-20T06:47:36Z</time></trkpt>
<trkpt lat="55.353847" lon="-2.746767">
<ele>247</ele>
<time>2020-02-20T06:47:50Z</time></trkpt>
<trkpt lat="55.354281" lon="-2.747166">
<ele>248</ele>
<time>2020-02-20T06:48:00Z</time></trkpt>
<trkpt lat="55.354806" lon="-2.748152">
<ele>249</ele>
<time>2020-02-20T06:48:15Z</time></trkpt>
<trkpt lat="55.355276" lon="-2.748648">
<ele>251</ele>
<time>2020-02-20T06:48:26Z</time></trkpt>
<trkpt lat="55.356417" lon="-2.748331">
<ele>253</ele>
<time>2020-02-20T06:48:49Z</time></trkpt>
<trkpt lat="55.359353" lon="-2.74801">
<ele>254</ele>
<time>2020-02-20T06:49:48Z</time></trkpt>
<trkpt lat="55.359867" lon="-2.748093">
<ele>255</ele>
<time>2020-02-20T06:49:59Z</time></trkpt>
<trkpt lat="55.363229" lon="-2.74979">
<ele>254</ele>
<time>2020-02-20T06:51:09Z</time></trkpt>
<trkpt lat="55.368851" lon="-2.749428">
<ele>247</ele>
<time>2020-02-20T06:53:01Z</time></trkpt>
<trkpt lat="55.36928" lon="-2.749528">
<ele>244</ele>
<time>2020-02-20T06:53:10Z</time></trkpt>
<trkpt lat="55.370098" lon="-2.750414">
<ele>236</ele>
<time>2020-02-20T06:53:29Z</time></trkpt>
<trkpt lat="55.370157" lon="-2.753444">
<ele>227</ele>
<time>2020-02-20T06:54:04Z</time></trkpt>
<trkpt lat="55.369954" lon="-2.757483">
<ele>210</ele>
<time>2020-02-20T06:54:50Z</time></trkpt>
<trkpt lat="55.36916" lon="-2.762468">
<ele>191</ele>
<time>2020-02-20T06:55:49Z</time></trkpt>
<trkpt lat="55.368898" lon="-2.765225">
<ele>196</ele>
<time>2020-02-20T06:56:21Z</time></trkpt>
<trkpt lat="55.368993" lon="-2.766666">
<ele>193</ele>
<time>2020-02-20T06:56:37Z</time></trkpt>
<trkpt lat="55.369726" lon="-2.769002">
<ele>192</ele>
<time>2020-02-20T06:57:08Z</time></trkpt>
<trkpt lat="55.369772" lon="-2.770671">
<ele>192</ele>
<time>2020-02-20T06:57:27Z</time></trkpt>
<trkpt lat="55.370019" lon="-2.771614">
<ele>191</ele>
<time>2020-02-20T06:57:39Z</time></trkpt>
<trkpt lat="55.370204" lon="-2.772021">
<ele>192</ele>
<time>2020-02-20T06:57:44Z</time></trkpt>
<trkpt lat="55.371507" lon="-2.773391">
<ele>189</ele>
<time>2020-02-20T06:58:15Z</time></trkpt>
<trkpt lat="55.371893" lon="-2.775875">
<ele>176</ele>
<time>2020-02-20T06:58:44Z</time></trkpt>
<trkpt lat="55.372187" lon="-2.776433">
<ele>173</ele>
<time>2020-02-20T06:58:53Z</time></trkpt>
<trkpt lat="55.373811" lon="-2.776396">
<ele>177</ele>
<time>2020-02-20T06:59:25Z</time></trkpt>
<trkpt lat="55.375635" lon="-2.777469">
<ele>166</ele>
<time>2020-02-20T07:00:04Z</time></trkpt>
<trkpt lat="55.378624" lon="-2.777536">
<ele>170</ele>
<time>2020-02-20T07:01:04Z</time></trkpt>
<trkpt lat="55.380547" lon="-2.77951">
<ele>159</ele>
<time>2020-02-20T07:01:48Z</time></trkpt>
<trkpt lat="55.381674" lon="-2.779767">
<ele>154</ele>
<time>2020-02-20T07:02:11Z</time></trkpt>
<trkpt lat="55.382086" lon="-2.781659">
<ele>160</ele>
<time>2020-02-20T07:02:34Z</time></trkpt>
<trkpt lat="55.382363" lon="-2.781678">
<ele>160</ele>
<time>2020-02-20T07:02:40Z</time></trkpt>
<trkpt lat="55.384393" lon="-2.780031">
<ele>153</ele>
<time>2020-02-20T07:03:25Z</time></trkpt>
<trkpt lat="55.385037" lon="-2.778549">
<ele>151</ele>
<time>2020-02-20T07:03:46Z</time></trkpt>
<trkpt lat="55.385308" lon="-2.778382">
<ele>151</ele>
<time>2020-02-20T07:03:52Z</time></trkpt>
<trkpt lat="55.386259" lon="-2.778255">
<ele>150</ele>
<time>2020-02-20T07:04:11Z</time></trkpt>
<trkpt lat="55.389238" lon="-2.779789">
<ele>147</ele>
<time>2020-02-20T07:05:13Z</time></trkpt>
<trkpt lat="55.389728" lon="-2.779835">
<ele>147</ele>
<time>2020-02-20T07:05:23Z</time></trkpt>
<trkpt lat="55.390273" lon="-2.779462">
<ele>145</ele>
<time>2020-02-20T07:05:34Z</time></trkpt>
<trkpt lat="55.39099" lon="-2.778024">
<ele>145</ele>
<time>2020-02-20T07:05:56Z</time></trkpt>
<trkpt lat="55.392675" lon="-2.776916">
<ele>147</ele>
<time>2020-02-20T07:06:32Z</time></trkpt>
<trkpt lat="55.39395" lon="-2.776726">
<ele>146</ele>
<time>2020-02-20T07:06:58Z</time></trkpt>
<trkpt lat="55.394465" lon="-2.777126">
<ele>145</ele>
<time>2020-02-20T07:07:09Z</time></trkpt>
<trkpt lat="55.395716" lon="-2.77936">
<ele>142</ele>
<time>2020-02-20T07:07:45Z</time></trkpt>
<trkpt lat="55.397777" lon="-2.781375">
<ele>139</ele>
<time>2020-02-20T07:08:32Z</time></trkpt>
<trkpt lat="55.398865" lon="-2.783014">
<ele>139</ele>
<time>2020-02-20T07:09:01Z</time></trkpt>
<trkpt lat="55.399417" lon="-2.783493">
<ele>136</ele>
<time>2020-02-20T07:09:13Z</time></trkpt>
<trkpt lat="55.400161" lon="-2.783839">
<ele>135</ele>
<time>2020-02-20T07:09:29Z</time></trkpt>
<trkpt lat="55.402043" lon="-2.784317">
<ele>135</ele>
<time>2020-02-20T07:10:07Z</time></trkpt>
<trkpt lat="55.402851" lon="-2.784075">
<ele>135</ele>
<time>2020-02-20T07:10:23Z</time></trkpt>
<trkpt lat="55.403796" lon="-2.784363">
<ele>135</ele>
<time>2020-02-20T07:10:42Z</time></trkpt>
<trkpt lat="55.405035" lon="-2.784378">
<ele>132</ele>
<time>2020-02-20T07:11:07Z</time></trkpt>
<trkpt lat="55.406454" lon="-2.783784">
<ele>138</ele>
<time>2020-02-20T07:11:36Z</time></trkpt>
<trkpt lat="55.407789" lon="-2.781328">
<ele>134</ele>
<time>2020-02-20T07:12:15Z</time></trkpt>
<trkpt lat="55.408469" lon="-2.781039">
<ele>134</ele>
<time>2020-02-20T07:12:29Z</time></trkpt>
<trkpt lat="55.40841" lon="-2.78049">
<ele>134</ele>
<time>2020-02-20T07:12:35Z</time></trkpt>
<trkpt lat="55.408843" lon="-2.779919">
<ele>135</ele>
<time>2020-02-20T07:12:46Z</time></trkpt>
<trkpt lat="55.409238" lon="-2.779981">
<ele>132</ele>
<time>2020-02-20T07:12:54Z</time></trkpt>
<trkpt lat="55.41024" lon="-2.77909">
<ele>134</ele>
<time>2020-02-20T07:13:17Z</time></trkpt>
<trkpt lat="55.41073" lon="-2.778876">
<ele>135</ele>
<time>2020-02-20T07:13:27Z</time></trkpt>
<trkpt lat="55.410983" lon="-2.778516">
<ele>139</ele>
<time>2020-02-20T07:13:33Z</time></trkpt>
<trkpt lat="55.411775" lon="-2.778168">
<ele>142</ele>
<time>2020-02-20T07:13:50Z</time></trkpt>
<trkpt lat="55.412363" lon="-2.777671">
<ele>146</ele>
<time>2020-02-20T07:14:03Z</time></trkpt>
<trkpt lat="55.412619" lon="-2.776921">
<ele>149</ele>
<time>2020-02-20T07:14:13Z</time></trkpt>
<trkpt lat="55.412841" lon="-2.775587">
<ele>161</ele>
<time>2020-02-20T07:14:29Z</time></trkpt>
<trkpt lat="55.413617" lon="-2.773393">
<ele>177</ele>
<time>2020-02-20T07:14:58Z</time></trkpt>
<trkpt lat="55.414704" lon="-2.772133">
<ele>183</ele>
<time>2020-02-20T07:15:24Z</time></trkpt>
<trkpt lat="55.415937" lon="-2.774536">
<ele>197</ele>
<time>2020-02-20T07:16:01Z</time></trkpt>
<trkpt lat="55.415999" lon="-2.77491">
<ele>198</ele>
<time>2020-02-20T07:16:05Z</time></trkpt>
<trkpt lat="55.41597" lon="-2.776255">
<ele>193</ele>
<time>2020-02-20T07:16:21Z</time></trkpt>
<trkpt lat="55.416655" lon="-2.777278">
<ele>196</ele>
<time>2020-02-20T07:16:39Z</time></trkpt>
<trkpt lat="55.416902" lon="-2.778279">
<ele>195</ele>
<time>2020-02-20T07:16:51Z</time></trkpt>
<trkpt lat="55.418512" lon="-2.780105">
<ele>174</ele>
<time>2020-02-20T07:17:29Z</time></trkpt>
<trkpt lat="55.4193196" lon="-2.7807463">
<ele>160</ele>
<time>2020-02-20T07:17:47Z</time></trkpt>
<trkpt lat="55.419575" lon="-2.780948">
<ele>155</ele>
<time>2020-02-20T07:17:53Z</time></trkpt>
<trkpt lat="55.420051" lon="-2.781789">
<ele>145</ele>
<time>2020-02-20T07:18:06Z</time></trkpt>
<trkpt lat="55.422692" lon="-2.779348">
<ele>139</ele>
<time>2020-02-20T07:19:06Z</time></trkpt>
<trkpt lat="55.422892" lon="-2.780042">
<ele>132</ele>
<time>2020-02-20T07:19:15Z</time></trkpt>
<trkpt lat="55.425737" lon="-2.778671">
<ele>138</ele>
<time>2020-02-20T07:20:14Z</time></trkpt>
<trkpt lat="55.42656" lon="-2.777758">
<ele>125</ele>
<time>2020-02-20T07:20:33Z</time></trkpt>
<trkpt lat="55.426572" lon="-2.779198">
<ele>115</ele>
<time>2020-02-20T07:20:50Z</time></trkpt>
<trkpt lat="55.426652" lon="-2.779116">
<ele>114</ele>
<time>2020-02-20T07:20:52Z</time></trkpt>
<trkpt lat="55.427151" lon="-2.777906">
<ele>112</ele>
<time>2020-02-20T07:21:09Z</time></trkpt>
<trkpt lat="55.427197" lon="-2.777951">
<ele>111</ele>
<time>2020-02-20T07:21:10Z</time></trkpt>
<trkpt lat="55.427561" lon="-2.776789">
<ele>112</ele>
<time>2020-02-20T07:21:25Z</time></trkpt>
<trkpt lat="55.428696" lon="-2.772137">
<ele>108</ele>
<time>2020-02-20T07:22:22Z</time></trkpt>
<trkpt lat="55.428561" lon="-2.771761">
<ele>111</ele>
<time>2020-02-20T07:22:27Z</time></trkpt>
<trkpt lat="55.429113" lon="-2.769731">
<ele>104</ele>
<time>2020-02-20T07:22:53Z</time></trkpt>
<trkpt lat="55.428561" lon="-2.771761">
<ele>111</ele>
<time>2020-02-20T07:23:19Z</time></trkpt>
<trkpt lat="55.428696" lon="-2.772137">
<ele>108</ele>
<time>2020-02-20T07:23:24Z</time></trkpt>
<trkpt lat="55.429489" lon="-2.768508">
<ele>102</ele>
<time>2020-02-20T07:24:08Z</time></trkpt>
<trkpt lat="55.430552" lon="-2.76539">
<ele>102</ele>
<time>2020-02-20T07:24:49Z</time></trkpt>
<trkpt lat="55.434735" lon="-2.754673">
<ele>102</ele>
<time>2020-02-20T07:27:17Z</time></trkpt>
<trkpt lat="55.435925" lon="-2.750325">
<ele>98</ele>
<time>2020-02-20T07:28:12Z</time></trkpt>
<trkpt lat="55.4367" lon="-2.74827">
<ele>100</ele>
<time>2020-02-20T07:28:40Z</time></trkpt>
<trkpt lat="55.437024" lon="-2.748091">
<ele>102</ele>
<time>2020-02-20T07:28:47Z</time></trkpt>
<trkpt lat="55.437631" lon="-2.748544">
<ele>99</ele>
<time>2020-02-20T07:29:00Z</time></trkpt>
<trkpt lat="55.43794" lon="-2.748368">
<ele>99</ele>
<time>2020-02-20T07:29:07Z</time></trkpt>
<trkpt lat="55.43978" lon="-2.74609">
<ele>104</ele>
<time>2020-02-20T07:29:52Z</time></trkpt>
<trkpt lat="55.440299" lon="-2.744759">
<ele>104</ele>
<time>2020-02-20T07:30:10Z</time></trkpt>
<trkpt lat="55.441662" lon="-2.74254">
<ele>105</ele>
<time>2020-02-20T07:30:47Z</time></trkpt>
<trkpt lat="55.442673" lon="-2.73897">
<ele>97</ele>
<time>2020-02-20T07:31:33Z</time></trkpt>
<trkpt lat="55.443006" lon="-2.73598">
<ele>92</ele>
<time>2020-02-20T07:32:07Z</time></trkpt>
<trkpt lat="55.443072" lon="-2.735709">
<ele>91</ele>
<time>2020-02-20T07:32:11Z</time></trkpt>
<trkpt lat="55.443266" lon="-2.735757">
<ele>90</ele>
<time>2020-02-20T07:32:14Z</time></trkpt>
<trkpt lat="55.443351" lon="-2.735518">
<ele>89</ele>
<time>2020-02-20T07:32:18Z</time></trkpt>
</trkseg>
</trk>
</gpx>